<?xml version="1.0" encoding="UTF-8" standalone="no" ?>
<gpx xmlns="http://www.topografix.com/GPX/1/1" xmlns:xsi="http://www.w3.org/2001/XMLSchema-instance" xsi:schemaLocation="http://www.topografix.com/GPX/1/1 http://www.topografix.com/GPX/1/1/gpx.xsd" version="1.1" creator="VisuGPX - https://www.visugpx.com">
  <metadata>
    <name>Boucle Sainte-Maxime Beauvallon Plan-De-La-Tour Saint-Aygulf</name>
    <desc><![CDATA[Magnifique parcours, superbes vues mer, 3 cols.
Quelques poussages et portages, quelques kilometres agréables sur bithume en montées, descentes sur sentiers.
La portion en bord de mer de Saint-Aygulf à Beauvallon est agréable nottament en fin de boucle, elle évite une grande partie de la D559 en empruntant des parallèles agréables et belles.
Se garer au départ parking du Golf de Beauvallon est pratique et semble sûr.

]]></desc>
  </metadata>
  <trk>
    <name><![CDATA[Boucle Beauvallon Plan De La Tour Saint Aygulf]]></name>
    <desc><![CDATA[]]></desc>
    <trkseg>
      <trkpt lat="43.29098" lon="6.60289">
        <ele>25</ele>
        <time>2015-04-29T04:31:44.479Z</time>
      </trkpt>
      <trkpt lat="43.29177" lon="6.60214">
        <ele>28</ele>
        <time>2015-04-29T04:32:50.418Z</time>
      </trkpt>
      <trkpt lat="43.29177" lon="6.60214">
        <ele>28</ele>
        <time>2015-04-29T04:32:52.574Z</time>
      </trkpt>
      <trkpt lat="43.29299" lon="6.60119">
        <ele>32</ele>
        <time>2015-04-29T04:33:49.493Z</time>
      </trkpt>
      <trkpt lat="43.29495" lon="6.5991">
        <ele>43</ele>
        <time>2015-04-29T04:34:21.518Z</time>
      </trkpt>
      <trkpt lat="43.29547" lon="6.59802">
        <ele>53</ele>
        <time>2015-04-29T04:34:52.414Z</time>
      </trkpt>
      <trkpt lat="43.29693" lon="6.5971">
        <ele>63</ele>
        <time>2015-04-29T04:36:01.424Z</time>
      </trkpt>
      <trkpt lat="43.29693" lon="6.5971">
        <ele>63</ele>
        <time>2015-04-29T04:36:12.185Z</time>
      </trkpt>
      <trkpt lat="43.29757" lon="6.59695">
        <ele>67</ele>
        <time>2015-04-29T04:36:22.412Z</time>
      </trkpt>
      <trkpt lat="43.29965" lon="6.59611">
        <ele>77</ele>
        <time>2015-04-29T04:37:22.481Z</time>
      </trkpt>
      <trkpt lat="43.30018" lon="6.59526">
        <ele>86</ele>
        <time>2015-04-29T04:38:24.440Z</time>
      </trkpt>
      <trkpt lat="43.30042" lon="6.59491">
        <ele>90</ele>
        <time>2015-04-29T04:38:55.566Z</time>
      </trkpt>
      <trkpt lat="43.30037" lon="6.5957">
        <ele>84</ele>
        <time>2015-04-29T04:39:27.447Z</time>
      </trkpt>
      <trkpt lat="43.30041" lon="6.59691">
        <ele>85</ele>
        <time>2015-04-29T04:39:56.538Z</time>
      </trkpt>
      <trkpt lat="43.30139" lon="6.59559">
        <ele>93</ele>
        <time>2015-04-29T04:40:27.558Z</time>
      </trkpt>
      <trkpt lat="43.3018" lon="6.59496">
        <ele>98</ele>
        <time>2015-04-29T04:40:58.634Z</time>
      </trkpt>
      <trkpt lat="43.3031" lon="6.59376">
        <ele>116</ele>
        <time>2015-04-29T04:41:58.622Z</time>
      </trkpt>
      <trkpt lat="43.30356" lon="6.59323">
        <ele>121</ele>
        <time>2015-04-29T04:42:31.448Z</time>
      </trkpt>
      <trkpt lat="43.30448" lon="6.59253">
        <ele>133</ele>
        <time>2015-04-29T04:43:00.545Z</time>
      </trkpt>
      <trkpt lat="43.30458" lon="6.59146">
        <ele>136</ele>
        <time>2015-04-29T04:43:31.441Z</time>
      </trkpt>
      <trkpt lat="43.30458" lon="6.59144">
        <ele>136</ele>
        <time>2015-04-29T04:44:01.371Z</time>
      </trkpt>
      <trkpt lat="43.30514" lon="6.59114">
        <ele>146</ele>
        <time>2015-04-29T04:44:33.502Z</time>
      </trkpt>
      <trkpt lat="43.30552" lon="6.59073">
        <ele>153</ele>
        <time>2015-04-29T04:45:05.262Z</time>
      </trkpt>
      <trkpt lat="43.30578" lon="6.59079">
        <ele>152</ele>
        <time>2015-04-29T04:45:36.382Z</time>
      </trkpt>
      <trkpt lat="43.30628" lon="6.59056">
        <ele>160</ele>
        <time>2015-04-29T04:46:06.164Z</time>
      </trkpt>
      <trkpt lat="43.30658" lon="6.59041">
        <ele>162</ele>
        <time>2015-04-29T04:46:36.368Z</time>
      </trkpt>
      <trkpt lat="43.30692" lon="6.59032">
        <ele>169</ele>
        <time>2015-04-29T04:47:07.167Z</time>
      </trkpt>
      <trkpt lat="43.30732" lon="6.59033">
        <ele>172</ele>
        <time>2015-04-29T04:48:09.288Z</time>
      </trkpt>
      <trkpt lat="43.30732" lon="6.59033">
        <ele>172</ele>
        <time>2015-04-29T04:48:18.317Z</time>
      </trkpt>
      <trkpt lat="43.30784" lon="6.59007">
        <ele>182</ele>
        <time>2015-04-29T04:48:39.499Z</time>
      </trkpt>
      <trkpt lat="43.30784" lon="6.59007">
        <ele>182</ele>
        <time>2015-04-29T04:48:46.062Z</time>
      </trkpt>
      <trkpt lat="43.3086" lon="6.58929">
        <ele>185</ele>
        <time>2015-04-29T04:49:40.526Z</time>
      </trkpt>
      <trkpt lat="43.3087" lon="6.58922">
        <ele>185</ele>
        <time>2015-04-29T04:50:11.580Z</time>
      </trkpt>
      <trkpt lat="43.30873" lon="6.58913">
        <ele>183</ele>
        <time>2015-04-29T04:51:43.733Z</time>
      </trkpt>
      <trkpt lat="43.30867" lon="6.5891">
        <ele>183</ele>
        <time>2015-04-29T04:51:44.151Z</time>
      </trkpt>
      <trkpt lat="43.30871" lon="6.58919">
        <ele>185</ele>
        <time>2015-04-29T04:53:47.307Z</time>
      </trkpt>
      <trkpt lat="43.31" lon="6.58904">
        <ele>173</ele>
        <time>2015-04-29T04:54:45.153Z</time>
      </trkpt>
      <trkpt lat="43.30999" lon="6.58903">
        <ele>177</ele>
        <time>2015-04-29T04:54:47.159Z</time>
      </trkpt>
      <trkpt lat="43.31013" lon="6.589">
        <ele>172</ele>
        <time>2015-04-29T04:55:17.189Z</time>
      </trkpt>
      <trkpt lat="43.31013" lon="6.58906">
        <ele>172</ele>
        <time>2015-04-29T04:55:45.257Z</time>
      </trkpt>
      <trkpt lat="43.31079" lon="6.58849">
        <ele>162</ele>
        <time>2015-04-29T04:56:16.205Z</time>
      </trkpt>
      <trkpt lat="43.31134" lon="6.58823">
        <ele>154</ele>
        <time>2015-04-29T04:56:45.669Z</time>
      </trkpt>
      <trkpt lat="43.31246" lon="6.58806">
        <ele>144</ele>
        <time>2015-04-29T04:57:16.161Z</time>
      </trkpt>
      <trkpt lat="43.3134" lon="6.58745">
        <ele>124</ele>
        <time>2015-04-29T04:57:45.154Z</time>
      </trkpt>
      <trkpt lat="43.31423" lon="6.5861">
        <ele>108</ele>
        <time>2015-04-29T04:58:15.173Z</time>
      </trkpt>
      <trkpt lat="43.31506" lon="6.5856">
        <ele>102</ele>
        <time>2015-04-29T04:58:45.426Z</time>
      </trkpt>
      <trkpt lat="43.31584" lon="6.58472">
        <ele>94</ele>
        <time>2015-04-29T04:59:16.364Z</time>
      </trkpt>
      <trkpt lat="43.31678" lon="6.58397">
        <ele>86</ele>
        <time>2015-04-29T04:59:45.613Z</time>
      </trkpt>
      <trkpt lat="43.31784" lon="6.58357">
        <ele>79</ele>
        <time>2015-04-29T05:00:16.157Z</time>
      </trkpt>
      <trkpt lat="43.3181" lon="6.58339">
        <ele>78</ele>
        <time>2015-04-29T05:00:45.241Z</time>
      </trkpt>
      <trkpt lat="43.31866" lon="6.58296">
        <ele>73</ele>
        <time>2015-04-29T05:01:16.183Z</time>
      </trkpt>
      <trkpt lat="43.31922" lon="6.58229">
        <ele>70</ele>
        <time>2015-04-29T05:01:45.362Z</time>
      </trkpt>
      <trkpt lat="43.32038" lon="6.5823">
        <ele>69</ele>
        <time>2015-04-29T05:02:16.295Z</time>
      </trkpt>
      <trkpt lat="43.32083" lon="6.58245">
        <ele>69</ele>
        <time>2015-04-29T05:02:45.154Z</time>
      </trkpt>
      <trkpt lat="43.32127" lon="6.58219">
        <ele>75</ele>
        <time>2015-04-29T05:03:15.156Z</time>
      </trkpt>
      <trkpt lat="43.32158" lon="6.58212">
        <ele>77</ele>
        <time>2015-04-29T05:03:45.606Z</time>
      </trkpt>
      <trkpt lat="43.32212" lon="6.582">
        <ele>83</ele>
        <time>2015-04-29T05:04:16.391Z</time>
      </trkpt>
      <trkpt lat="43.3225" lon="6.58193">
        <ele>84</ele>
        <time>2015-04-29T05:04:45.162Z</time>
      </trkpt>
      <trkpt lat="43.32266" lon="6.58194">
        <ele>84</ele>
        <time>2015-04-29T05:05:15.310Z</time>
      </trkpt>
      <trkpt lat="43.32314" lon="6.58215">
        <ele>83</ele>
        <time>2015-04-29T05:05:45.228Z</time>
      </trkpt>
      <trkpt lat="43.32376" lon="6.58199">
        <ele>76</ele>
        <time>2015-04-29T05:06:15.241Z</time>
      </trkpt>
      <trkpt lat="43.32411" lon="6.5819">
        <ele>75</ele>
        <time>2015-04-29T05:06:45.193Z</time>
      </trkpt>
      <trkpt lat="43.32437" lon="6.58161">
        <ele>69</ele>
        <time>2015-04-29T05:07:16.186Z</time>
      </trkpt>
      <trkpt lat="43.32445" lon="6.58155">
        <ele>69</ele>
        <time>2015-04-29T05:07:45.168Z</time>
      </trkpt>
      <trkpt lat="43.32456" lon="6.58154">
        <ele>68</ele>
        <time>2015-04-29T05:08:15.210Z</time>
      </trkpt>
      <trkpt lat="43.32453" lon="6.58137">
        <ele>68</ele>
        <time>2015-04-29T05:08:45.243Z</time>
      </trkpt>
      <trkpt lat="43.32446" lon="6.58121">
        <ele>68</ele>
        <time>2015-04-29T05:09:16.409Z</time>
      </trkpt>
      <trkpt lat="43.32441" lon="6.58087">
        <ele>68</ele>
        <time>2015-04-29T05:09:45.220Z</time>
      </trkpt>
      <trkpt lat="43.32484" lon="6.58132">
        <ele>66</ele>
        <time>2015-04-29T05:10:16.166Z</time>
      </trkpt>
      <trkpt lat="43.32521" lon="6.58155">
        <ele>63</ele>
        <time>2015-04-29T05:10:45.171Z</time>
      </trkpt>
      <trkpt lat="43.32636" lon="6.58193">
        <ele>54</ele>
        <time>2015-04-29T05:11:15.256Z</time>
      </trkpt>
      <trkpt lat="43.32688" lon="6.58192">
        <ele>51</ele>
        <time>2015-04-29T05:11:45.161Z</time>
      </trkpt>
      <trkpt lat="43.32794" lon="6.5812">
        <ele>51</ele>
        <time>2015-04-29T05:12:15.574Z</time>
      </trkpt>
      <trkpt lat="43.32953" lon="6.58057">
        <ele>35</ele>
        <time>2015-04-29T05:12:45.579Z</time>
      </trkpt>
      <trkpt lat="43.33109" lon="6.57983">
        <ele>26</ele>
        <time>2015-04-29T05:13:16.524Z</time>
      </trkpt>
      <trkpt lat="43.33136" lon="6.57961">
        <ele>28</ele>
        <time>2015-04-29T05:13:45.780Z</time>
      </trkpt>
      <trkpt lat="43.33149" lon="6.57831">
        <ele>32</ele>
        <time>2015-04-29T05:14:16.440Z</time>
      </trkpt>
      <trkpt lat="43.33154" lon="6.57829">
        <ele>32</ele>
        <time>2015-04-29T05:15:38.402Z</time>
      </trkpt>
      <trkpt lat="43.33158" lon="6.5779">
        <ele>32</ele>
        <time>2015-04-29T05:15:45.475Z</time>
      </trkpt>
      <trkpt lat="43.33158" lon="6.57784">
        <ele>32</ele>
        <time>2015-04-29T05:15:46.401Z</time>
      </trkpt>
      <trkpt lat="43.33158" lon="6.57777">
        <ele>32</ele>
        <time>2015-04-29T05:15:47.432Z</time>
      </trkpt>
      <trkpt lat="43.3317" lon="6.57521">
        <ele>37</ele>
        <time>2015-04-29T05:16:18.326Z</time>
      </trkpt>
      <trkpt lat="43.33212" lon="6.57287">
        <ele>34</ele>
        <time>2015-04-29T05:16:45.401Z</time>
      </trkpt>
      <trkpt lat="43.33262" lon="6.57043">
        <ele>36</ele>
        <time>2015-04-29T05:17:15.558Z</time>
      </trkpt>
      <trkpt lat="43.33318" lon="6.56821">
        <ele>33</ele>
        <time>2015-04-29T05:17:45.382Z</time>
      </trkpt>
      <trkpt lat="43.33374" lon="6.56591">
        <ele>36</ele>
        <time>2015-04-29T05:18:15.542Z</time>
      </trkpt>
      <trkpt lat="43.33386" lon="6.56483">
        <ele>34</ele>
        <time>2015-04-29T05:18:45.299Z</time>
      </trkpt>
      <trkpt lat="43.33389" lon="6.56444">
        <ele>34</ele>
        <time>2015-04-29T05:19:15.388Z</time>
      </trkpt>
      <trkpt lat="43.33424" lon="6.56237">
        <ele>38</ele>
        <time>2015-04-29T05:19:45.408Z</time>
      </trkpt>
      <trkpt lat="43.33469" lon="6.5603">
        <ele>43</ele>
        <time>2015-04-29T05:20:15.435Z</time>
      </trkpt>
      <trkpt lat="43.33514" lon="6.55839">
        <ele>48</ele>
        <time>2015-04-29T05:20:45.370Z</time>
      </trkpt>
      <trkpt lat="43.33583" lon="6.55665">
        <ele>49</ele>
        <time>2015-04-29T05:21:15.476Z</time>
      </trkpt>
      <trkpt lat="43.33647" lon="6.55462">
        <ele>55</ele>
        <time>2015-04-29T05:21:45.397Z</time>
      </trkpt>
      <trkpt lat="43.33735" lon="6.55318">
        <ele>57</ele>
        <time>2015-04-29T05:22:16.295Z</time>
      </trkpt>
      <trkpt lat="43.33736" lon="6.55315">
        <ele>57</ele>
        <time>2015-04-29T05:22:45.382Z</time>
      </trkpt>
      <trkpt lat="43.33771" lon="6.55265">
        <ele>58</ele>
        <time>2015-04-29T05:23:16.438Z</time>
      </trkpt>
      <trkpt lat="43.33816" lon="6.5521">
        <ele>60</ele>
        <time>2015-04-29T05:23:45.345Z</time>
      </trkpt>
      <trkpt lat="43.33813" lon="6.55205">
        <ele>60</ele>
        <time>2015-04-29T05:24:33.428Z</time>
      </trkpt>
      <trkpt lat="43.3379" lon="6.55153">
        <ele>62</ele>
        <time>2015-04-29T05:24:45.462Z</time>
      </trkpt>
      <trkpt lat="43.33759" lon="6.54876">
        <ele>69</ele>
        <time>2015-04-29T05:25:45.295Z</time>
      </trkpt>
      <trkpt lat="43.33674" lon="6.54775">
        <ele>69</ele>
        <time>2015-04-29T05:26:15.416Z</time>
      </trkpt>
      <trkpt lat="43.33682" lon="6.5465">
        <ele>71</ele>
        <time>2015-04-29T05:26:45.459Z</time>
      </trkpt>
      <trkpt lat="43.33787" lon="6.5469">
        <ele>74</ele>
        <time>2015-04-29T05:27:16.291Z</time>
      </trkpt>
      <trkpt lat="43.33836" lon="6.54595">
        <ele>76</ele>
        <time>2015-04-29T05:27:45.382Z</time>
      </trkpt>
      <trkpt lat="43.33936" lon="6.54486">
        <ele>80</ele>
        <time>2015-04-29T05:28:15.445Z</time>
      </trkpt>
      <trkpt lat="43.33916" lon="6.5438">
        <ele>86</ele>
        <time>2015-04-29T05:28:45.341Z</time>
      </trkpt>
      <trkpt lat="43.3385" lon="6.54236">
        <ele>101</ele>
        <time>2015-04-29T05:29:15.366Z</time>
      </trkpt>
      <trkpt lat="43.33757" lon="6.54166">
        <ele>98</ele>
        <time>2015-04-29T05:29:45.404Z</time>
      </trkpt>
      <trkpt lat="43.33765" lon="6.54176">
        <ele>96</ele>
        <time>2015-04-29T05:30:16.346Z</time>
      </trkpt>
      <trkpt lat="43.33798" lon="6.5409">
        <ele>106</ele>
        <time>2015-04-29T05:30:45.382Z</time>
      </trkpt>
      <trkpt lat="43.33841" lon="6.54067">
        <ele>120</ele>
        <time>2015-04-29T05:31:16.342Z</time>
      </trkpt>
      <trkpt lat="43.33852" lon="6.54068">
        <ele>122</ele>
        <time>2015-04-29T05:31:45.316Z</time>
      </trkpt>
      <trkpt lat="43.33877" lon="6.54071">
        <ele>126</ele>
        <time>2015-04-29T05:32:15.459Z</time>
      </trkpt>
      <trkpt lat="43.33903" lon="6.54098">
        <ele>122</ele>
        <time>2015-04-29T05:32:45.393Z</time>
      </trkpt>
      <trkpt lat="43.33933" lon="6.54101">
        <ele>132</ele>
        <time>2015-04-29T05:33:16.298Z</time>
      </trkpt>
      <trkpt lat="43.33954" lon="6.54127">
        <ele>133</ele>
        <time>2015-04-29T05:33:45.429Z</time>
      </trkpt>
      <trkpt lat="43.33991" lon="6.5414">
        <ele>137</ele>
        <time>2015-04-29T05:34:16.409Z</time>
      </trkpt>
      <trkpt lat="43.34015" lon="6.54127">
        <ele>150</ele>
        <time>2015-04-29T05:34:40.244Z</time>
      </trkpt>
      <trkpt lat="43.34036" lon="6.54129">
        <ele>153</ele>
        <time>2015-04-29T05:35:16.299Z</time>
      </trkpt>
      <trkpt lat="43.34043" lon="6.5413">
        <ele>153</ele>
        <time>2015-04-29T05:35:45.421Z</time>
      </trkpt>
      <trkpt lat="43.34056" lon="6.54129">
        <ele>155</ele>
        <time>2015-04-29T05:36:16.375Z</time>
      </trkpt>
      <trkpt lat="43.34081" lon="6.54129">
        <ele>157</ele>
        <time>2015-04-29T05:36:45.341Z</time>
      </trkpt>
      <trkpt lat="43.34092" lon="6.54112">
        <ele>165</ele>
        <time>2015-04-29T05:37:15.385Z</time>
      </trkpt>
      <trkpt lat="43.34095" lon="6.5409">
        <ele>166</ele>
        <time>2015-04-29T05:37:45.466Z</time>
      </trkpt>
      <trkpt lat="43.34105" lon="6.54043">
        <ele>175</ele>
        <time>2015-04-29T05:38:16.375Z</time>
      </trkpt>
      <trkpt lat="43.34112" lon="6.54012">
        <ele>177</ele>
        <time>2015-04-29T05:38:45.623Z</time>
      </trkpt>
      <trkpt lat="43.34122" lon="6.53985">
        <ele>188</ele>
        <time>2015-04-29T05:39:16.613Z</time>
      </trkpt>
      <trkpt lat="43.34132" lon="6.53969">
        <ele>191</ele>
        <time>2015-04-29T05:39:45.653Z</time>
      </trkpt>
      <trkpt lat="43.34129" lon="6.53963">
        <ele>191</ele>
        <time>2015-04-29T05:40:16.615Z</time>
      </trkpt>
      <trkpt lat="43.34131" lon="6.53935">
        <ele>194</ele>
        <time>2015-04-29T05:40:45.708Z</time>
      </trkpt>
      <trkpt lat="43.34134" lon="6.53921">
        <ele>196</ele>
        <time>2015-04-29T05:41:16.547Z</time>
      </trkpt>
      <trkpt lat="43.34135" lon="6.53913">
        <ele>208</ele>
        <time>2015-04-29T05:41:46.540Z</time>
      </trkpt>
      <trkpt lat="43.3413" lon="6.53934">
        <ele>194</ele>
        <time>2015-04-29T05:42:16.866Z</time>
      </trkpt>
      <trkpt lat="43.34131" lon="6.53969">
        <ele>191</ele>
        <time>2015-04-29T05:42:46.638Z</time>
      </trkpt>
      <trkpt lat="43.34131" lon="6.53967">
        <ele>191</ele>
        <time>2015-04-29T05:45:54.196Z</time>
      </trkpt>
      <trkpt lat="43.34049" lon="6.5412">
        <ele>155</ele>
        <time>2015-04-29T05:47:28.447Z</time>
      </trkpt>
      <trkpt lat="43.34049" lon="6.5412">
        <ele>155</ele>
        <time>2015-04-29T05:47:26.272Z</time>
      </trkpt>
      <trkpt lat="43.3404" lon="6.54128">
        <ele>153</ele>
        <time>2015-04-29T05:47:34.280Z</time>
      </trkpt>
      <trkpt lat="43.34024" lon="6.54121">
        <ele>152</ele>
        <time>2015-04-29T05:48:03.885Z</time>
      </trkpt>
      <trkpt lat="43.33993" lon="6.54135">
        <ele>137</ele>
        <time>2015-04-29T05:48:34.650Z</time>
      </trkpt>
      <trkpt lat="43.33903" lon="6.54096">
        <ele>122</ele>
        <time>2015-04-29T05:49:34.773Z</time>
      </trkpt>
      <trkpt lat="43.33903" lon="6.54096">
        <ele>122</ele>
        <time>2015-04-29T05:49:47.385Z</time>
      </trkpt>
      <trkpt lat="43.3381" lon="6.54084">
        <ele>107</ele>
        <time>2015-04-29T05:50:34.852Z</time>
      </trkpt>
      <trkpt lat="43.33697" lon="6.54034">
        <ele>106</ele>
        <time>2015-04-29T05:51:35.755Z</time>
      </trkpt>
      <trkpt lat="43.33582" lon="6.53707">
        <ele>109</ele>
        <time>2015-04-29T05:52:36.843Z</time>
      </trkpt>
      <trkpt lat="43.33624" lon="6.53481">
        <ele>121</ele>
        <time>2015-04-29T05:53:22.964Z</time>
      </trkpt>
      <trkpt lat="43.33851" lon="6.53258">
        <ele>137</ele>
        <time>2015-04-29T05:54:43.076Z</time>
      </trkpt>
      <trkpt lat="43.33851" lon="6.53258">
        <ele>137</ele>
        <time>2015-04-29T05:55:00.046Z</time>
      </trkpt>
      <trkpt lat="43.33936" lon="6.53269">
        <ele>140</ele>
        <time>2015-04-29T05:55:12.463Z</time>
      </trkpt>
      <trkpt lat="43.34183" lon="6.53038">
        <ele>157</ele>
        <time>2015-04-29T05:56:36.902Z</time>
      </trkpt>
      <trkpt lat="43.3419" lon="6.53033">
        <ele>157</ele>
        <time>2015-04-29T05:56:38.914Z</time>
      </trkpt>
      <trkpt lat="43.34209" lon="6.5301">
        <ele>158</ele>
        <time>2015-04-29T05:56:46.705Z</time>
      </trkpt>
      <trkpt lat="43.34083" lon="6.52841">
        <ele>161</ele>
        <time>2015-04-29T05:57:36.282Z</time>
      </trkpt>
      <trkpt lat="43.33984" lon="6.52783">
        <ele>169</ele>
        <time>2015-04-29T05:58:31.606Z</time>
      </trkpt>
      <trkpt lat="43.3391" lon="6.52769">
        <ele>175</ele>
        <time>2015-04-29T05:59:16.139Z</time>
      </trkpt>
      <trkpt lat="43.33908" lon="6.52771">
        <ele>174</ele>
        <time>2015-04-29T05:59:45.925Z</time>
      </trkpt>
      <trkpt lat="43.33817" lon="6.52702">
        <ele>173</ele>
        <time>2015-04-29T06:00:27.073Z</time>
      </trkpt>
      <trkpt lat="43.33817" lon="6.52702">
        <ele>173</ele>
        <time>2015-04-29T06:00:27.490Z</time>
      </trkpt>
      <trkpt lat="43.33871" lon="6.52616">
        <ele>177</ele>
        <time>2015-04-29T06:00:56.926Z</time>
      </trkpt>
      <trkpt lat="43.33992" lon="6.52596">
        <ele>188</ele>
        <time>2015-04-29T06:01:27.255Z</time>
      </trkpt>
      <trkpt lat="43.3398" lon="6.52468">
        <ele>191</ele>
        <time>2015-04-29T06:01:57.301Z</time>
      </trkpt>
      <trkpt lat="43.33849" lon="6.52227">
        <ele>212</ele>
        <time>2015-04-29T06:02:57.206Z</time>
      </trkpt>
      <trkpt lat="43.33796" lon="6.52203">
        <ele>209</ele>
        <time>2015-04-29T06:03:42.561Z</time>
      </trkpt>
      <trkpt lat="43.33692" lon="6.52149">
        <ele>213</ele>
        <time>2015-04-29T06:03:58.350Z</time>
      </trkpt>
      <trkpt lat="43.33673" lon="6.52034">
        <ele>224</ele>
        <time>2015-04-29T06:04:28.419Z</time>
      </trkpt>
      <trkpt lat="43.33754" lon="6.51713">
        <ele>240</ele>
        <time>2015-04-29T06:05:45.943Z</time>
      </trkpt>
      <trkpt lat="43.3376" lon="6.51708">
        <ele>241</ele>
        <time>2015-04-29T06:05:47.953Z</time>
      </trkpt>
      <trkpt lat="43.33704" lon="6.51521">
        <ele>241</ele>
        <time>2015-04-29T06:06:41.054Z</time>
      </trkpt>
      <trkpt lat="43.336" lon="6.51316">
        <ele>251</ele>
        <time>2015-04-29T06:07:41.248Z</time>
      </trkpt>
      <trkpt lat="43.33585" lon="6.51301">
        <ele>250</ele>
        <time>2015-04-29T06:07:45.238Z</time>
      </trkpt>
      <trkpt lat="43.33714" lon="6.51236">
        <ele>252</ele>
        <time>2015-04-29T06:08:36.351Z</time>
      </trkpt>
      <trkpt lat="43.33832" lon="6.51304">
        <ele>274</ele>
        <time>2015-04-29T06:09:07.491Z</time>
      </trkpt>
      <trkpt lat="43.33851" lon="6.51209">
        <ele>288</ele>
        <time>2015-04-29T06:09:37.451Z</time>
      </trkpt>
      <trkpt lat="43.33797" lon="6.51072">
        <ele>281</ele>
        <time>2015-04-29T06:10:09.471Z</time>
      </trkpt>
      <trkpt lat="43.33759" lon="6.50923">
        <ele>287</ele>
        <time>2015-04-29T06:10:45.380Z</time>
      </trkpt>
      <trkpt lat="43.33946" lon="6.50767">
        <ele>306</ele>
        <time>2015-04-29T06:11:53.360Z</time>
      </trkpt>
      <trkpt lat="43.33946" lon="6.50767">
        <ele>306</ele>
        <time>2015-04-29T06:11:51.986Z</time>
      </trkpt>
      <trkpt lat="43.34017" lon="6.50692">
        <ele>320</ele>
        <time>2015-04-29T06:12:24.528Z</time>
      </trkpt>
      <trkpt lat="43.33954" lon="6.50598">
        <ele>314</ele>
        <time>2015-04-29T06:12:55.082Z</time>
      </trkpt>
      <trkpt lat="43.33885" lon="6.50514">
        <ele>323</ele>
        <time>2015-04-29T06:13:25.407Z</time>
      </trkpt>
      <trkpt lat="43.33788" lon="6.50464">
        <ele>332</ele>
        <time>2015-04-29T06:13:57.357Z</time>
      </trkpt>
      <trkpt lat="43.33709" lon="6.50377">
        <ele>334</ele>
        <time>2015-04-29T06:14:27.067Z</time>
      </trkpt>
      <trkpt lat="43.33686" lon="6.50311">
        <ele>345</ele>
        <time>2015-04-29T06:14:46.081Z</time>
      </trkpt>
      <trkpt lat="43.33633" lon="6.50136">
        <ele>363</ele>
        <time>2015-04-29T06:15:27.355Z</time>
      </trkpt>
      <trkpt lat="43.33521" lon="6.50083">
        <ele>351</ele>
        <time>2015-04-29T06:15:57.213Z</time>
      </trkpt>
      <trkpt lat="43.33451" lon="6.50048">
        <ele>359</ele>
        <time>2015-04-29T06:16:28.113Z</time>
      </trkpt>
      <trkpt lat="43.33416" lon="6.49996">
        <ele>360</ele>
        <time>2015-04-29T06:16:46.097Z</time>
      </trkpt>
      <trkpt lat="43.33438" lon="6.50027">
        <ele>360</ele>
        <time>2015-04-29T06:17:16.103Z</time>
      </trkpt>
      <trkpt lat="43.33489" lon="6.50048">
        <ele>360</ele>
        <time>2015-04-29T06:17:46.183Z</time>
      </trkpt>
      <trkpt lat="43.33489" lon="6.50064">
        <ele>358</ele>
        <time>2015-04-29T06:19:22.339Z</time>
      </trkpt>
      <trkpt lat="43.33489" lon="6.50064">
        <ele>358</ele>
        <time>2015-04-29T06:19:26.132Z</time>
      </trkpt>
      <trkpt lat="43.33491" lon="6.50046">
        <ele>361</ele>
        <time>2015-04-29T06:19:29.353Z</time>
      </trkpt>
      <trkpt lat="43.33497" lon="6.50058">
        <ele>359</ele>
        <time>2015-04-29T06:20:29.394Z</time>
      </trkpt>
      <trkpt lat="43.3361" lon="6.50092">
        <ele>367</ele>
        <time>2015-04-29T06:20:59.489Z</time>
      </trkpt>
      <trkpt lat="43.33698" lon="6.50183">
        <ele>371</ele>
        <time>2015-04-29T06:21:29.475Z</time>
      </trkpt>
      <trkpt lat="43.33758" lon="6.50297">
        <ele>384</ele>
        <time>2015-04-29T06:22:00.623Z</time>
      </trkpt>
      <trkpt lat="43.3403" lon="6.50475">
        <ele>368</ele>
        <time>2015-04-29T06:23:00.598Z</time>
      </trkpt>
      <trkpt lat="43.34126" lon="6.50674">
        <ele>347</ele>
        <time>2015-04-29T06:23:31.741Z</time>
      </trkpt>
      <trkpt lat="43.34146" lon="6.50687">
        <ele>349</ele>
        <time>2015-04-29T06:23:46.408Z</time>
      </trkpt>
      <trkpt lat="43.34137" lon="6.50853">
        <ele>376</ele>
        <time>2015-04-29T06:24:29.764Z</time>
      </trkpt>
      <trkpt lat="43.34079" lon="6.50942">
        <ele>381</ele>
        <time>2015-04-29T06:24:58.798Z</time>
      </trkpt>
      <trkpt lat="43.34012" lon="6.50965">
        <ele>378</ele>
        <time>2015-04-29T06:25:29.444Z</time>
      </trkpt>
      <trkpt lat="43.34062" lon="6.51058">
        <ele>393</ele>
        <time>2015-04-29T06:26:31.133Z</time>
      </trkpt>
      <trkpt lat="43.34106" lon="6.51312">
        <ele>409</ele>
        <time>2015-04-29T06:28:01.136Z</time>
      </trkpt>
      <trkpt lat="43.34192" lon="6.51438">
        <ele>435</ele>
        <time>2015-04-29T06:28:46.067Z</time>
      </trkpt>
      <trkpt lat="43.34183" lon="6.51546">
        <ele>440</ele>
        <time>2015-04-29T06:29:31.150Z</time>
      </trkpt>
      <trkpt lat="43.34125" lon="6.51592">
        <ele>421</ele>
        <time>2015-04-29T06:30:01.258Z</time>
      </trkpt>
      <trkpt lat="43.3412" lon="6.51657">
        <ele>421</ele>
        <time>2015-04-29T06:30:32.261Z</time>
      </trkpt>
      <trkpt lat="43.3417" lon="6.51708">
        <ele>437</ele>
        <time>2015-04-29T06:31:01.508Z</time>
      </trkpt>
      <trkpt lat="43.34249" lon="6.51739">
        <ele>444</ele>
        <time>2015-04-29T06:31:32.324Z</time>
      </trkpt>
      <trkpt lat="43.343" lon="6.51811">
        <ele>445</ele>
        <time>2015-04-29T06:32:02.276Z</time>
      </trkpt>
      <trkpt lat="43.34379" lon="6.51821">
        <ele>475</ele>
        <time>2015-04-29T06:32:32.335Z</time>
      </trkpt>
      <trkpt lat="43.34416" lon="6.51898">
        <ele>448</ele>
        <time>2015-04-29T06:33:03.171Z</time>
      </trkpt>
      <trkpt lat="43.34511" lon="6.51918">
        <ele>474</ele>
        <time>2015-04-29T06:33:34.287Z</time>
      </trkpt>
      <trkpt lat="43.34538" lon="6.52056">
        <ele>464</ele>
        <time>2015-04-29T06:34:03.328Z</time>
      </trkpt>
      <trkpt lat="43.34579" lon="6.52158">
        <ele>458</ele>
        <time>2015-04-29T06:34:38.400Z</time>
      </trkpt>
      <trkpt lat="43.34579" lon="6.52158">
        <ele>458</ele>
        <time>2015-04-29T06:35:03.268Z</time>
      </trkpt>
      <trkpt lat="43.34752" lon="6.52202">
        <ele>466</ele>
        <time>2015-04-29T06:36:22.528Z</time>
      </trkpt>
      <trkpt lat="43.35523" lon="6.52759">
        <ele>382</ele>
        <time>2015-04-29T06:41:00.559Z</time>
      </trkpt>
      <trkpt lat="43.35523" lon="6.52759">
        <ele>382</ele>
        <time>2015-04-29T06:41:00.553Z</time>
      </trkpt>
      <trkpt lat="43.35517" lon="6.52799">
        <ele>381</ele>
        <time>2015-04-29T06:41:09.343Z</time>
      </trkpt>
      <trkpt lat="43.35527" lon="6.52823">
        <ele>380</ele>
        <time>2015-04-29T06:41:40.191Z</time>
      </trkpt>
      <trkpt lat="43.35524" lon="6.52842">
        <ele>374</ele>
        <time>2015-04-29T06:41:47.093Z</time>
      </trkpt>
      <trkpt lat="43.35434" lon="6.5305">
        <ele>358</ele>
        <time>2015-04-29T06:42:20.461Z</time>
      </trkpt>
      <trkpt lat="43.35394" lon="6.53197">
        <ele>337</ele>
        <time>2015-04-29T06:42:51.279Z</time>
      </trkpt>
      <trkpt lat="43.35428" lon="6.53393">
        <ele>305</ele>
        <time>2015-04-29T06:43:21.089Z</time>
      </trkpt>
      <trkpt lat="43.35388" lon="6.53523">
        <ele>302</ele>
        <time>2015-04-29T06:43:51.704Z</time>
      </trkpt>
      <trkpt lat="43.35621" lon="6.54266">
        <ele>290</ele>
        <time>2015-04-29T06:46:03.973Z</time>
      </trkpt>
      <trkpt lat="43.35696" lon="6.54444">
        <ele>289</ele>
        <time>2015-04-29T06:46:34.484Z</time>
      </trkpt>
      <trkpt lat="43.35755" lon="6.54553">
        <ele>297</ele>
        <time>2015-04-29T06:47:05.244Z</time>
      </trkpt>
      <trkpt lat="43.36097" lon="6.55499">
        <ele>274</ele>
        <time>2015-04-29T06:49:52.214Z</time>
      </trkpt>
      <trkpt lat="43.36091" lon="6.55526">
        <ele>272</ele>
        <time>2015-04-29T06:49:53.197Z</time>
      </trkpt>
      <trkpt lat="43.36084" lon="6.55514">
        <ele>273</ele>
        <time>2015-04-29T06:49:54.225Z</time>
      </trkpt>
      <trkpt lat="43.36084" lon="6.55789">
        <ele>259</ele>
        <time>2015-04-29T06:50:24.902Z</time>
      </trkpt>
      <trkpt lat="43.36111" lon="6.55934">
        <ele>256</ele>
        <time>2015-04-29T06:50:46.896Z</time>
      </trkpt>
      <trkpt lat="43.36272" lon="6.56008">
        <ele>246</ele>
        <time>2015-04-29T06:51:42.564Z</time>
      </trkpt>
      <trkpt lat="43.36456" lon="6.56256">
        <ele>223</ele>
        <time>2015-04-29T06:52:13.200Z</time>
      </trkpt>
      <trkpt lat="43.3654" lon="6.56363">
        <ele>226</ele>
        <time>2015-04-29T06:52:42.810Z</time>
      </trkpt>
      <trkpt lat="43.36539" lon="6.56385">
        <ele>226</ele>
        <time>2015-04-29T06:52:45.813Z</time>
      </trkpt>
      <trkpt lat="43.36608" lon="6.56487">
        <ele>232</ele>
        <time>2015-04-29T06:53:16.558Z</time>
      </trkpt>
      <trkpt lat="43.36641" lon="6.56552">
        <ele>238</ele>
        <time>2015-04-29T06:53:48.558Z</time>
      </trkpt>
      <trkpt lat="43.36665" lon="6.56612">
        <ele>240</ele>
        <time>2015-04-29T06:54:19.637Z</time>
      </trkpt>
      <trkpt lat="43.36689" lon="6.56677">
        <ele>247</ele>
        <time>2015-04-29T06:54:47.568Z</time>
      </trkpt>
      <trkpt lat="43.36739" lon="6.56643">
        <ele>253</ele>
        <time>2015-04-29T06:55:17.686Z</time>
      </trkpt>
      <trkpt lat="43.36822" lon="6.56677">
        <ele>258</ele>
        <time>2015-04-29T06:55:49.576Z</time>
      </trkpt>
      <trkpt lat="43.36988" lon="6.56944">
        <ele>252</ele>
        <time>2015-04-29T06:56:50.620Z</time>
      </trkpt>
      <trkpt lat="43.37031" lon="6.57011">
        <ele>248</ele>
        <time>2015-04-29T06:57:22.516Z</time>
      </trkpt>
      <trkpt lat="43.37414" lon="6.57529">
        <ele>267</ele>
        <time>2015-04-29T06:59:22.532Z</time>
      </trkpt>
      <trkpt lat="43.37433" lon="6.57606">
        <ele>271</ele>
        <time>2015-04-29T06:59:51.638Z</time>
      </trkpt>
      <trkpt lat="43.37457" lon="6.57692">
        <ele>276</ele>
        <time>2015-04-29T07:00:22.954Z</time>
      </trkpt>
      <trkpt lat="43.37498" lon="6.57778">
        <ele>278</ele>
        <time>2015-04-29T07:00:55.758Z</time>
      </trkpt>
      <trkpt lat="43.37515" lon="6.57842">
        <ele>287</ele>
        <time>2015-04-29T07:01:27.391Z</time>
      </trkpt>
      <trkpt lat="43.37587" lon="6.57813">
        <ele>288</ele>
        <time>2015-04-29T07:01:55.652Z</time>
      </trkpt>
      <trkpt lat="43.37628" lon="6.57756">
        <ele>287</ele>
        <time>2015-04-29T07:02:28.691Z</time>
      </trkpt>
      <trkpt lat="43.37695" lon="6.57743">
        <ele>287</ele>
        <time>2015-04-29T07:02:54.655Z</time>
      </trkpt>
      <trkpt lat="43.37685" lon="6.57749">
        <ele>288</ele>
        <time>2015-04-29T07:03:24.592Z</time>
      </trkpt>
      <trkpt lat="43.37811" lon="6.57788">
        <ele>295</ele>
        <time>2015-04-29T07:04:12.397Z</time>
      </trkpt>
      <trkpt lat="43.37854" lon="6.57746">
        <ele>294</ele>
        <time>2015-04-29T07:04:43.336Z</time>
      </trkpt>
      <trkpt lat="43.37919" lon="6.57766">
        <ele>306</ele>
        <time>2015-04-29T07:05:13.316Z</time>
      </trkpt>
      <trkpt lat="43.38018" lon="6.57736">
        <ele>311</ele>
        <time>2015-04-29T07:06:13.553Z</time>
      </trkpt>
      <trkpt lat="43.38101" lon="6.57733">
        <ele>310</ele>
        <time>2015-04-29T07:06:43.650Z</time>
      </trkpt>
      <trkpt lat="43.38099" lon="6.57727">
        <ele>310</ele>
        <time>2015-04-29T07:07:13.206Z</time>
      </trkpt>
      <trkpt lat="43.38059" lon="6.57886">
        <ele>304</ele>
        <time>2015-04-29T07:07:43.252Z</time>
      </trkpt>
      <trkpt lat="43.38052" lon="6.5791">
        <ele>303</ele>
        <time>2015-04-29T07:07:46.229Z</time>
      </trkpt>
      <trkpt lat="43.37921" lon="6.58381">
        <ele>257</ele>
        <time>2015-04-29T07:08:56.575Z</time>
      </trkpt>
      <trkpt lat="43.38072" lon="6.58365">
        <ele>238</ele>
        <time>2015-04-29T07:09:31.600Z</time>
      </trkpt>
      <trkpt lat="43.38227" lon="6.58268">
        <ele>215</ele>
        <time>2015-04-29T07:10:05.825Z</time>
      </trkpt>
      <trkpt lat="43.38239" lon="6.58274">
        <ele>214</ele>
        <time>2015-04-29T07:10:36.495Z</time>
      </trkpt>
      <trkpt lat="43.38252" lon="6.58511">
        <ele>193</ele>
        <time>2015-04-29T07:11:14.657Z</time>
      </trkpt>
      <trkpt lat="43.38288" lon="6.58847">
        <ele>178</ele>
        <time>2015-04-29T07:12:14.224Z</time>
      </trkpt>
      <trkpt lat="43.38317" lon="6.58963">
        <ele>182</ele>
        <time>2015-04-29T07:12:46.005Z</time>
      </trkpt>
      <trkpt lat="43.38353" lon="6.59064">
        <ele>187</ele>
        <time>2015-04-29T07:13:14.930Z</time>
      </trkpt>
      <trkpt lat="43.38341" lon="6.59052">
        <ele>187</ele>
        <time>2015-04-29T07:13:44.942Z</time>
      </trkpt>
      <trkpt lat="43.38343" lon="6.59054">
        <ele>187</ele>
        <time>2015-04-29T07:13:46.977Z</time>
      </trkpt>
      <trkpt lat="43.38337" lon="6.59065">
        <ele>187</ele>
        <time>2015-04-29T07:14:17.864Z</time>
      </trkpt>
      <trkpt lat="43.38338" lon="6.59067">
        <ele>187</ele>
        <time>2015-04-29T07:14:46.873Z</time>
      </trkpt>
      <trkpt lat="43.38376" lon="6.59071">
        <ele>187</ele>
        <time>2015-04-29T07:15:17.615Z</time>
      </trkpt>
      <trkpt lat="43.38345" lon="6.5908">
        <ele>187</ele>
        <time>2015-04-29T07:15:46.616Z</time>
      </trkpt>
      <trkpt lat="43.38396" lon="6.59154">
        <ele>194</ele>
        <time>2015-04-29T07:16:17.679Z</time>
      </trkpt>
      <trkpt lat="43.38422" lon="6.59208">
        <ele>201</ele>
        <time>2015-04-29T07:16:46.618Z</time>
      </trkpt>
      <trkpt lat="43.38441" lon="6.59269">
        <ele>208</ele>
        <time>2015-04-29T07:17:25.777Z</time>
      </trkpt>
      <trkpt lat="43.38448" lon="6.59333">
        <ele>212</ele>
        <time>2015-04-29T07:17:57.138Z</time>
      </trkpt>
      <trkpt lat="43.38462" lon="6.5932">
        <ele>210</ele>
        <time>2015-04-29T07:18:56.953Z</time>
      </trkpt>
      <trkpt lat="43.38467" lon="6.59341">
        <ele>218</ele>
        <time>2015-04-29T07:19:57.109Z</time>
      </trkpt>
      <trkpt lat="43.38474" lon="6.59332">
        <ele>210</ele>
        <time>2015-04-29T07:20:28.101Z</time>
      </trkpt>
      <trkpt lat="43.38472" lon="6.59334">
        <ele>217</ele>
        <time>2015-04-29T07:20:57.850Z</time>
      </trkpt>
      <trkpt lat="43.38483" lon="6.59343">
        <ele>216</ele>
        <time>2015-04-29T07:21:57.623Z</time>
      </trkpt>
      <trkpt lat="43.38481" lon="6.59332">
        <ele>210</ele>
        <time>2015-04-29T07:24:30.173Z</time>
      </trkpt>
      <trkpt lat="43.38517" lon="6.59413">
        <ele>222</ele>
        <time>2015-04-29T07:25:48.681Z</time>
      </trkpt>
      <trkpt lat="43.38519" lon="6.59416">
        <ele>222</ele>
        <time>2015-04-29T07:25:49.275Z</time>
      </trkpt>
      <trkpt lat="43.38511" lon="6.59473">
        <ele>229</ele>
        <time>2015-04-29T07:25:52.162Z</time>
      </trkpt>
      <trkpt lat="43.38566" lon="6.59624">
        <ele>239</ele>
        <time>2015-04-29T07:26:52.443Z</time>
      </trkpt>
      <trkpt lat="43.386" lon="6.59666">
        <ele>242</ele>
        <time>2015-04-29T07:27:22.155Z</time>
      </trkpt>
      <trkpt lat="43.38641" lon="6.59672">
        <ele>249</ele>
        <time>2015-04-29T07:27:52.273Z</time>
      </trkpt>
      <trkpt lat="43.38695" lon="6.5968">
        <ele>251</ele>
        <time>2015-04-29T07:28:23.304Z</time>
      </trkpt>
      <trkpt lat="43.38734" lon="6.5976">
        <ele>259</ele>
        <time>2015-04-29T07:28:53.194Z</time>
      </trkpt>
      <trkpt lat="43.38874" lon="6.59778">
        <ele>264</ele>
        <time>2015-04-29T07:29:52.187Z</time>
      </trkpt>
      <trkpt lat="43.3893" lon="6.59869">
        <ele>271</ele>
        <time>2015-04-29T07:30:22.269Z</time>
      </trkpt>
      <trkpt lat="43.38961" lon="6.5985">
        <ele>269</ele>
        <time>2015-04-29T07:30:52.157Z</time>
      </trkpt>
      <trkpt lat="43.39001" lon="6.59959">
        <ele>278</ele>
        <time>2015-04-29T07:31:53.717Z</time>
      </trkpt>
      <trkpt lat="43.38997" lon="6.59949">
        <ele>281</ele>
        <time>2015-04-29T07:32:34.385Z</time>
      </trkpt>
      <trkpt lat="43.39008" lon="6.60011">
        <ele>284</ele>
        <time>2015-04-29T07:33:35.570Z</time>
      </trkpt>
      <trkpt lat="43.38996" lon="6.60066">
        <ele>293</ele>
        <time>2015-04-29T07:34:27.799Z</time>
      </trkpt>
      <trkpt lat="43.38995" lon="6.60067">
        <ele>293</ele>
        <time>2015-04-29T07:34:28.484Z</time>
      </trkpt>
      <trkpt lat="43.38977" lon="6.60103">
        <ele>300</ele>
        <time>2015-04-29T07:35:01.463Z</time>
      </trkpt>
      <trkpt lat="43.38924" lon="6.60117">
        <ele>306</ele>
        <time>2015-04-29T07:36:00.545Z</time>
      </trkpt>
      <trkpt lat="43.38913" lon="6.60082">
        <ele>311</ele>
        <time>2015-04-29T07:36:31.893Z</time>
      </trkpt>
      <trkpt lat="43.38908" lon="6.60054">
        <ele>312</ele>
        <time>2015-04-29T07:38:00.351Z</time>
      </trkpt>
      <trkpt lat="43.38908" lon="6.60055">
        <ele>312</ele>
        <time>2015-04-29T07:38:00.773Z</time>
      </trkpt>
      <trkpt lat="43.38889" lon="6.60092">
        <ele>317</ele>
        <time>2015-04-29T07:38:01.722Z</time>
      </trkpt>
      <trkpt lat="43.38908" lon="6.60052">
        <ele>312</ele>
        <time>2015-04-29T07:38:47.491Z</time>
      </trkpt>
      <trkpt lat="43.38872" lon="6.60024">
        <ele>313</ele>
        <time>2015-04-29T07:39:23.427Z</time>
      </trkpt>
      <trkpt lat="43.38851" lon="6.60042">
        <ele>316</ele>
        <time>2015-04-29T07:39:47.406Z</time>
      </trkpt>
      <trkpt lat="43.38823" lon="6.60063">
        <ele>324</ele>
        <time>2015-04-29T07:40:31.471Z</time>
      </trkpt>
      <trkpt lat="43.38815" lon="6.60124">
        <ele>333</ele>
        <time>2015-04-29T07:41:02.574Z</time>
      </trkpt>
      <trkpt lat="43.38811" lon="6.60131">
        <ele>333</ele>
        <time>2015-04-29T07:41:32.428Z</time>
      </trkpt>
      <trkpt lat="43.38806" lon="6.60126">
        <ele>333</ele>
        <time>2015-04-29T07:41:47.411Z</time>
      </trkpt>
      <trkpt lat="43.3879" lon="6.60154">
        <ele>336</ele>
        <time>2015-04-29T07:42:17.478Z</time>
      </trkpt>
      <trkpt lat="43.38773" lon="6.60176">
        <ele>347</ele>
        <time>2015-04-29T07:42:46.497Z</time>
      </trkpt>
      <trkpt lat="43.38753" lon="6.60223">
        <ele>355</ele>
        <time>2015-04-29T07:43:33.647Z</time>
      </trkpt>
      <trkpt lat="43.38816" lon="6.60262">
        <ele>357</ele>
        <time>2015-04-29T07:44:03.562Z</time>
      </trkpt>
      <trkpt lat="43.38817" lon="6.60284">
        <ele>362</ele>
        <time>2015-04-29T07:44:33.570Z</time>
      </trkpt>
      <trkpt lat="43.38854" lon="6.60336">
        <ele>361</ele>
        <time>2015-04-29T07:45:03.550Z</time>
      </trkpt>
      <trkpt lat="43.38853" lon="6.60367">
        <ele>363</ele>
        <time>2015-04-29T07:45:34.476Z</time>
      </trkpt>
      <trkpt lat="43.38867" lon="6.60384">
        <ele>363</ele>
        <time>2015-04-29T07:46:03.711Z</time>
      </trkpt>
      <trkpt lat="43.38852" lon="6.60412">
        <ele>372</ele>
        <time>2015-04-29T07:48:34.729Z</time>
      </trkpt>
      <trkpt lat="43.38862" lon="6.60399">
        <ele>366</ele>
        <time>2015-04-29T07:48:47.416Z</time>
      </trkpt>
      <trkpt lat="43.38862" lon="6.604">
        <ele>366</ele>
        <time>2015-04-29T07:48:48.405Z</time>
      </trkpt>
      <trkpt lat="43.38872" lon="6.6042">
        <ele>375</ele>
        <time>2015-04-29T07:49:18.591Z</time>
      </trkpt>
      <trkpt lat="43.38909" lon="6.60523">
        <ele>387</ele>
        <time>2015-04-29T07:50:23.476Z</time>
      </trkpt>
      <trkpt lat="43.38909" lon="6.60523">
        <ele>387</ele>
        <time>2015-04-29T07:50:21.439Z</time>
      </trkpt>
      <trkpt lat="43.38956" lon="6.60561">
        <ele>393</ele>
        <time>2015-04-29T07:50:52.620Z</time>
      </trkpt>
      <trkpt lat="43.38974" lon="6.60532">
        <ele>388</ele>
        <time>2015-04-29T07:51:22.573Z</time>
      </trkpt>
      <trkpt lat="43.38982" lon="6.60553">
        <ele>392</ele>
        <time>2015-04-29T07:51:54.023Z</time>
      </trkpt>
      <trkpt lat="43.3901" lon="6.60544">
        <ele>392</ele>
        <time>2015-04-29T07:52:23.406Z</time>
      </trkpt>
      <trkpt lat="43.39004" lon="6.6055">
        <ele>394</ele>
        <time>2015-04-29T07:53:05.561Z</time>
      </trkpt>
      <trkpt lat="43.39047" lon="6.60568">
        <ele>397</ele>
        <time>2015-04-29T07:53:42.804Z</time>
      </trkpt>
      <trkpt lat="43.39047" lon="6.60568">
        <ele>397</ele>
        <time>2015-04-29T07:53:38.898Z</time>
      </trkpt>
      <trkpt lat="43.39076" lon="6.6057">
        <ele>401</ele>
        <time>2015-04-29T07:54:12.164Z</time>
      </trkpt>
      <trkpt lat="43.39162" lon="6.60583">
        <ele>412</ele>
        <time>2015-04-29T07:54:42.652Z</time>
      </trkpt>
      <trkpt lat="43.39118" lon="6.60562">
        <ele>402</ele>
        <time>2015-04-29T07:54:46.991Z</time>
      </trkpt>
      <trkpt lat="43.39152" lon="6.60552">
        <ele>403</ele>
        <time>2015-04-29T07:55:28.492Z</time>
      </trkpt>
      <trkpt lat="43.39182" lon="6.60554">
        <ele>410</ele>
        <time>2015-04-29T07:55:57.446Z</time>
      </trkpt>
      <trkpt lat="43.39259" lon="6.60551">
        <ele>416</ele>
        <time>2015-04-29T07:56:58.396Z</time>
      </trkpt>
      <trkpt lat="43.39268" lon="6.60567">
        <ele>417</ele>
        <time>2015-04-29T07:57:29.339Z</time>
      </trkpt>
      <trkpt lat="43.39266" lon="6.60573">
        <ele>417</ele>
        <time>2015-04-29T07:58:49.341Z</time>
      </trkpt>
      <trkpt lat="43.39276" lon="6.60572">
        <ele>417</ele>
        <time>2015-04-29T07:59:19.369Z</time>
      </trkpt>
      <trkpt lat="43.39274" lon="6.60571">
        <ele>417</ele>
        <time>2015-04-29T07:59:20.982Z</time>
      </trkpt>
      <trkpt lat="43.39306" lon="6.60623">
        <ele>415</ele>
        <time>2015-04-29T07:59:46.974Z</time>
      </trkpt>
      <trkpt lat="43.39439" lon="6.6067">
        <ele>401</ele>
        <time>2015-04-29T08:00:44.177Z</time>
      </trkpt>
      <trkpt lat="43.39532" lon="6.60758">
        <ele>395</ele>
        <time>2015-04-29T08:01:14.043Z</time>
      </trkpt>
      <trkpt lat="43.3959" lon="6.6082">
        <ele>396</ele>
        <time>2015-04-29T08:01:44.359Z</time>
      </trkpt>
      <trkpt lat="43.39595" lon="6.60824">
        <ele>396</ele>
        <time>2015-04-29T08:01:46.379Z</time>
      </trkpt>
      <trkpt lat="43.39699" lon="6.60793">
        <ele>402</ele>
        <time>2015-04-29T08:02:17.416Z</time>
      </trkpt>
      <trkpt lat="43.3976" lon="6.60864">
        <ele>403</ele>
        <time>2015-04-29T08:02:46.399Z</time>
      </trkpt>
      <trkpt lat="43.39651" lon="6.61032">
        <ele>366</ele>
        <time>2015-04-29T08:03:23.867Z</time>
      </trkpt>
      <trkpt lat="43.39625" lon="6.61309">
        <ele>358</ele>
        <time>2015-04-29T08:04:39.943Z</time>
      </trkpt>
      <trkpt lat="43.39679" lon="6.61439">
        <ele>351</ele>
        <time>2015-04-29T08:05:18.723Z</time>
      </trkpt>
      <trkpt lat="43.39773" lon="6.61602">
        <ele>357</ele>
        <time>2015-04-29T08:05:56.206Z</time>
      </trkpt>
      <trkpt lat="43.39712" lon="6.61778">
        <ele>336</ele>
        <time>2015-04-29T08:06:26.343Z</time>
      </trkpt>
      <trkpt lat="43.39709" lon="6.61957">
        <ele>332</ele>
        <time>2015-04-29T08:06:55.405Z</time>
      </trkpt>
      <trkpt lat="43.39723" lon="6.62106">
        <ele>319</ele>
        <time>2015-04-29T08:07:27.405Z</time>
      </trkpt>
      <trkpt lat="43.39731" lon="6.62108">
        <ele>320</ele>
        <time>2015-04-29T08:08:28.224Z</time>
      </trkpt>
      <trkpt lat="43.39806" lon="6.62169">
        <ele>308</ele>
        <time>2015-04-29T08:09:06.737Z</time>
      </trkpt>
      <trkpt lat="43.40011" lon="6.62277">
        <ele>292</ele>
        <time>2015-04-29T08:09:59.325Z</time>
      </trkpt>
      <trkpt lat="43.40022" lon="6.62274">
        <ele>293</ele>
        <time>2015-04-29T08:10:03.363Z</time>
      </trkpt>
      <trkpt lat="43.39517" lon="6.62909">
        <ele>251</ele>
        <time>2015-04-29T08:13:49.800Z</time>
      </trkpt>
      <trkpt lat="43.39595" lon="6.63104">
        <ele>260</ele>
        <time>2015-04-29T08:14:34.747Z</time>
      </trkpt>
      <trkpt lat="43.39524" lon="6.63178">
        <ele>250</ele>
        <time>2015-04-29T08:15:03.923Z</time>
      </trkpt>
      <trkpt lat="43.3939" lon="6.63275">
        <ele>230</ele>
        <time>2015-04-29T08:15:33.814Z</time>
      </trkpt>
      <trkpt lat="43.39279" lon="6.63383">
        <ele>234</ele>
        <time>2015-04-29T08:16:03.928Z</time>
      </trkpt>
      <trkpt lat="43.39276" lon="6.63643">
        <ele>230</ele>
        <time>2015-04-29T08:17:03.513Z</time>
      </trkpt>
      <trkpt lat="43.39248" lon="6.63801">
        <ele>213</ele>
        <time>2015-04-29T08:17:35.443Z</time>
      </trkpt>
      <trkpt lat="43.39282" lon="6.63884">
        <ele>219</ele>
        <time>2015-04-29T08:18:03.743Z</time>
      </trkpt>
      <trkpt lat="43.39259" lon="6.63889">
        <ele>218</ele>
        <time>2015-04-29T08:18:36.775Z</time>
      </trkpt>
      <trkpt lat="43.39269" lon="6.6389">
        <ele>218</ele>
        <time>2015-04-29T08:18:47.440Z</time>
      </trkpt>
      <trkpt lat="43.39253" lon="6.64001">
        <ele>205</ele>
        <time>2015-04-29T08:19:17.508Z</time>
      </trkpt>
      <trkpt lat="43.3929" lon="6.63963">
        <ele>206</ele>
        <time>2015-04-29T08:19:47.421Z</time>
      </trkpt>
      <trkpt lat="43.39409" lon="6.63943">
        <ele>196</ele>
        <time>2015-04-29T08:20:17.450Z</time>
      </trkpt>
      <trkpt lat="43.39459" lon="6.6394">
        <ele>191</ele>
        <time>2015-04-29T08:20:47.484Z</time>
      </trkpt>
      <trkpt lat="43.39561" lon="6.63927">
        <ele>193</ele>
        <time>2015-04-29T08:21:21.937Z</time>
      </trkpt>
      <trkpt lat="43.39641" lon="6.64021">
        <ele>183</ele>
        <time>2015-04-29T08:21:53.030Z</time>
      </trkpt>
      <trkpt lat="43.39851" lon="6.64067">
        <ele>186</ele>
        <time>2015-04-29T08:23:28.185Z</time>
      </trkpt>
      <trkpt lat="43.40002" lon="6.64118">
        <ele>193</ele>
        <time>2015-04-29T08:24:18.887Z</time>
      </trkpt>
      <trkpt lat="43.40009" lon="6.64152">
        <ele>191</ele>
        <time>2015-04-29T08:24:23.002Z</time>
      </trkpt>
      <trkpt lat="43.40042" lon="6.64161">
        <ele>191</ele>
        <time>2015-04-29T08:24:52.642Z</time>
      </trkpt>
      <trkpt lat="43.40055" lon="6.64214">
        <ele>194</ele>
        <time>2015-04-29T08:25:23.461Z</time>
      </trkpt>
      <trkpt lat="43.40064" lon="6.64243">
        <ele>197</ele>
        <time>2015-04-29T08:25:47.551Z</time>
      </trkpt>
      <trkpt lat="43.40079" lon="6.64256">
        <ele>202</ele>
        <time>2015-04-29T08:26:17.531Z</time>
      </trkpt>
      <trkpt lat="43.40069" lon="6.64305">
        <ele>209</ele>
        <time>2015-04-29T08:26:52.672Z</time>
      </trkpt>
      <trkpt lat="43.40059" lon="6.64323">
        <ele>211</ele>
        <time>2015-04-29T08:27:23.959Z</time>
      </trkpt>
      <trkpt lat="43.40062" lon="6.64319">
        <ele>211</ele>
        <time>2015-04-29T08:27:53.792Z</time>
      </trkpt>
      <trkpt lat="43.40061" lon="6.64353">
        <ele>222</ele>
        <time>2015-04-29T08:28:53.996Z</time>
      </trkpt>
      <trkpt lat="43.40016" lon="6.6435">
        <ele>221</ele>
        <time>2015-04-29T08:29:38.804Z</time>
      </trkpt>
      <trkpt lat="43.39949" lon="6.64448">
        <ele>234</ele>
        <time>2015-04-29T08:30:23.810Z</time>
      </trkpt>
      <trkpt lat="43.39879" lon="6.64463">
        <ele>229</ele>
        <time>2015-04-29T08:30:54.812Z</time>
      </trkpt>
      <trkpt lat="43.39851" lon="6.64476">
        <ele>230</ele>
        <time>2015-04-29T08:31:24.969Z</time>
      </trkpt>
      <trkpt lat="43.39826" lon="6.64516">
        <ele>235</ele>
        <time>2015-04-29T08:31:53.986Z</time>
      </trkpt>
      <trkpt lat="43.39806" lon="6.64528">
        <ele>236</ele>
        <time>2015-04-29T08:32:25.807Z</time>
      </trkpt>
      <trkpt lat="43.39751" lon="6.64511">
        <ele>236</ele>
        <time>2015-04-29T08:33:12.601Z</time>
      </trkpt>
      <trkpt lat="43.39674" lon="6.64534">
        <ele>230</ele>
        <time>2015-04-29T08:33:43.009Z</time>
      </trkpt>
      <trkpt lat="43.39555" lon="6.64596">
        <ele>210</ele>
        <time>2015-04-29T08:34:13.818Z</time>
      </trkpt>
      <trkpt lat="43.39475" lon="6.6466">
        <ele>198</ele>
        <time>2015-04-29T08:34:46.875Z</time>
      </trkpt>
      <trkpt lat="43.39333" lon="6.64642">
        <ele>189</ele>
        <time>2015-04-29T08:35:43.854Z</time>
      </trkpt>
      <trkpt lat="43.39337" lon="6.64635">
        <ele>188</ele>
        <time>2015-04-29T08:35:47.803Z</time>
      </trkpt>
      <trkpt lat="43.39349" lon="6.6467">
        <ele>187</ele>
        <time>2015-04-29T08:36:18.496Z</time>
      </trkpt>
      <trkpt lat="43.39636" lon="6.64757">
        <ele>197</ele>
        <time>2015-04-29T08:37:53.543Z</time>
      </trkpt>
      <trkpt lat="43.39636" lon="6.64757">
        <ele>197</ele>
        <time>2015-04-29T08:37:52.601Z</time>
      </trkpt>
      <trkpt lat="43.3964" lon="6.64788">
        <ele>199</ele>
        <time>2015-04-29T08:38:00.676Z</time>
      </trkpt>
      <trkpt lat="43.39545" lon="6.64857">
        <ele>193</ele>
        <time>2015-04-29T08:38:30.793Z</time>
      </trkpt>
      <trkpt lat="43.395" lon="6.64995">
        <ele>197</ele>
        <time>2015-04-29T08:39:01.530Z</time>
      </trkpt>
      <trkpt lat="43.39409" lon="6.65125">
        <ele>187</ele>
        <time>2015-04-29T08:39:32.141Z</time>
      </trkpt>
      <trkpt lat="43.39402" lon="6.65176">
        <ele>188</ele>
        <time>2015-04-29T08:40:21.164Z</time>
      </trkpt>
      <trkpt lat="43.39577" lon="6.6534">
        <ele>175</ele>
        <time>2015-04-29T08:41:07.329Z</time>
      </trkpt>
      <trkpt lat="43.39723" lon="6.65369">
        <ele>176</ele>
        <time>2015-04-29T08:41:37.817Z</time>
      </trkpt>
      <trkpt lat="43.39983" lon="6.65504">
        <ele>149</ele>
        <time>2015-04-29T08:42:39.183Z</time>
      </trkpt>
      <trkpt lat="43.4001" lon="6.65533">
        <ele>144</ele>
        <time>2015-04-29T08:43:22.184Z</time>
      </trkpt>
      <trkpt lat="43.40014" lon="6.65751">
        <ele>125</ele>
        <time>2015-04-29T08:43:52.803Z</time>
      </trkpt>
      <trkpt lat="43.39805" lon="6.66193">
        <ele>87</ele>
        <time>2015-04-29T08:44:53.273Z</time>
      </trkpt>
      <trkpt lat="43.39792" lon="6.66222">
        <ele>84</ele>
        <time>2015-04-29T08:45:47.159Z</time>
      </trkpt>
      <trkpt lat="43.3978" lon="6.66245">
        <ele>83</ele>
        <time>2015-04-29T08:46:18.240Z</time>
      </trkpt>
      <trkpt lat="43.39789" lon="6.66308">
        <ele>74</ele>
        <time>2015-04-29T08:46:47.196Z</time>
      </trkpt>
      <trkpt lat="43.39773" lon="6.66416">
        <ele>66</ele>
        <time>2015-04-29T08:47:18.172Z</time>
      </trkpt>
      <trkpt lat="43.39774" lon="6.66416">
        <ele>66</ele>
        <time>2015-04-29T08:52:49.196Z</time>
      </trkpt>
      <trkpt lat="43.39661" lon="6.66422">
        <ele>57</ele>
        <time>2015-04-29T08:53:47.148Z</time>
      </trkpt>
      <trkpt lat="43.39656" lon="6.66426">
        <ele>56</ele>
        <time>2015-04-29T08:53:48.271Z</time>
      </trkpt>
      <trkpt lat="43.39651" lon="6.66431">
        <ele>56</ele>
        <time>2015-04-29T08:53:49.211Z</time>
      </trkpt>
      <trkpt lat="43.39588" lon="6.66441">
        <ele>53</ele>
        <time>2015-04-29T08:54:20.157Z</time>
      </trkpt>
      <trkpt lat="43.39368" lon="6.66498">
        <ele>36</ele>
        <time>2015-04-29T08:55:05.228Z</time>
      </trkpt>
      <trkpt lat="43.39335" lon="6.66527">
        <ele>36</ele>
        <time>2015-04-29T08:55:35.773Z</time>
      </trkpt>
      <trkpt lat="43.39341" lon="6.66541">
        <ele>36</ele>
        <time>2015-04-29T08:55:47.123Z</time>
      </trkpt>
      <trkpt lat="43.39307" lon="6.66718">
        <ele>28</ele>
        <time>2015-04-29T08:56:17.006Z</time>
      </trkpt>
      <trkpt lat="43.39277" lon="6.66857">
        <ele>21</ele>
        <time>2015-04-29T08:56:47.049Z</time>
      </trkpt>
      <trkpt lat="43.394" lon="6.66978">
        <ele>21</ele>
        <time>2015-04-29T08:57:17.057Z</time>
      </trkpt>
      <trkpt lat="43.39497" lon="6.67123">
        <ele>19</ele>
        <time>2015-04-29T08:57:47.052Z</time>
      </trkpt>
      <trkpt lat="43.39598" lon="6.67218">
        <ele>18</ele>
        <time>2015-04-29T08:58:17.147Z</time>
      </trkpt>
      <trkpt lat="43.3972" lon="6.67245">
        <ele>18</ele>
        <time>2015-04-29T08:58:47.107Z</time>
      </trkpt>
      <trkpt lat="43.39718" lon="6.67428">
        <ele>15</ele>
        <time>2015-04-29T08:59:17.132Z</time>
      </trkpt>
      <trkpt lat="43.39684" lon="6.67446">
        <ele>15</ele>
        <time>2015-04-29T08:59:47.131Z</time>
      </trkpt>
      <trkpt lat="43.39512" lon="6.67556">
        <ele>19</ele>
        <time>2015-04-29T09:00:40.037Z</time>
      </trkpt>
      <trkpt lat="43.39513" lon="6.67557">
        <ele>19</ele>
        <time>2015-04-29T09:00:47.055Z</time>
      </trkpt>
      <trkpt lat="43.39482" lon="6.67558">
        <ele>21</ele>
        <time>2015-04-29T09:01:17.087Z</time>
      </trkpt>
      <trkpt lat="43.39288" lon="6.67596">
        <ele>26</ele>
        <time>2015-04-29T09:02:11.404Z</time>
      </trkpt>
      <trkpt lat="43.39217" lon="6.67626">
        <ele>26</ele>
        <time>2015-04-29T09:02:42.156Z</time>
      </trkpt>
      <trkpt lat="43.39217" lon="6.67626">
        <ele>26</ele>
        <time>2015-04-29T09:02:47.036Z</time>
      </trkpt>
      <trkpt lat="43.39213" lon="6.67651">
        <ele>24</ele>
        <time>2015-04-29T09:03:24.661Z</time>
      </trkpt>
      <trkpt lat="43.39204" lon="6.677">
        <ele>26</ele>
        <time>2015-04-29T09:03:53.739Z</time>
      </trkpt>
      <trkpt lat="43.39209" lon="6.67674">
        <ele>24</ele>
        <time>2015-04-29T09:04:24.318Z</time>
      </trkpt>
      <trkpt lat="43.39195" lon="6.67686">
        <ele>25</ele>
        <time>2015-04-29T09:04:47.263Z</time>
      </trkpt>
      <trkpt lat="43.39192" lon="6.67727">
        <ele>28</ele>
        <time>2015-04-29T09:05:17.426Z</time>
      </trkpt>
      <trkpt lat="43.39183" lon="6.6775">
        <ele>36</ele>
        <time>2015-04-29T09:05:47.414Z</time>
      </trkpt>
      <trkpt lat="43.39168" lon="6.67759">
        <ele>35</ele>
        <time>2015-04-29T09:06:17.311Z</time>
      </trkpt>
      <trkpt lat="43.39165" lon="6.67762">
        <ele>35</ele>
        <time>2015-04-29T09:06:47.290Z</time>
      </trkpt>
      <trkpt lat="43.39126" lon="6.67808">
        <ele>40</ele>
        <time>2015-04-29T09:08:10.919Z</time>
      </trkpt>
      <trkpt lat="43.3911" lon="6.67817">
        <ele>40</ele>
        <time>2015-04-29T09:09:09.811Z</time>
      </trkpt>
      <trkpt lat="43.39124" lon="6.67811">
        <ele>40</ele>
        <time>2015-04-29T09:09:12.864Z</time>
      </trkpt>
      <trkpt lat="43.39119" lon="6.67803">
        <ele>39</ele>
        <time>2015-04-29T09:09:43.761Z</time>
      </trkpt>
      <trkpt lat="43.39111" lon="6.678">
        <ele>39</ele>
        <time>2015-04-29T09:10:14.639Z</time>
      </trkpt>
      <trkpt lat="43.39112" lon="6.67811">
        <ele>40</ele>
        <time>2015-04-29T09:11:14.759Z</time>
      </trkpt>
      <trkpt lat="43.39119" lon="6.67836">
        <ele>49</ele>
        <time>2015-04-29T09:11:44.611Z</time>
      </trkpt>
      <trkpt lat="43.39121" lon="6.67905">
        <ele>52</ele>
        <time>2015-04-29T09:13:15.861Z</time>
      </trkpt>
      <trkpt lat="43.39158" lon="6.67989">
        <ele>63</ele>
        <time>2015-04-29T09:13:59.695Z</time>
      </trkpt>
      <trkpt lat="43.392" lon="6.68111">
        <ele>74</ele>
        <time>2015-04-29T09:14:45.290Z</time>
      </trkpt>
      <trkpt lat="43.39262" lon="6.6816">
        <ele>75</ele>
        <time>2015-04-29T09:15:15.198Z</time>
      </trkpt>
      <trkpt lat="43.39258" lon="6.68216">
        <ele>76</ele>
        <time>2015-04-29T09:15:45.999Z</time>
      </trkpt>
      <trkpt lat="43.39272" lon="6.68208">
        <ele>75</ele>
        <time>2015-04-29T09:15:47.714Z</time>
      </trkpt>
      <trkpt lat="43.39304" lon="6.68287">
        <ele>74</ele>
        <time>2015-04-29T09:16:18.717Z</time>
      </trkpt>
      <trkpt lat="43.39354" lon="6.68376">
        <ele>75</ele>
        <time>2015-04-29T09:17:07.400Z</time>
      </trkpt>
      <trkpt lat="43.39394" lon="6.68446">
        <ele>82</ele>
        <time>2015-04-29T09:17:37.398Z</time>
      </trkpt>
      <trkpt lat="43.39448" lon="6.68536">
        <ele>87</ele>
        <time>2015-04-29T09:18:07.816Z</time>
      </trkpt>
      <trkpt lat="43.39464" lon="6.68574">
        <ele>88</ele>
        <time>2015-04-29T09:19:07.717Z</time>
      </trkpt>
      <trkpt lat="43.39503" lon="6.68774">
        <ele>102</ele>
        <time>2015-04-29T09:19:57.565Z</time>
      </trkpt>
      <trkpt lat="43.39546" lon="6.68836">
        <ele>102</ele>
        <time>2015-04-29T09:20:29.714Z</time>
      </trkpt>
      <trkpt lat="43.39539" lon="6.68851">
        <ele>103</ele>
        <time>2015-04-29T09:20:59.389Z</time>
      </trkpt>
      <trkpt lat="43.39548" lon="6.6885">
        <ele>102</ele>
        <time>2015-04-29T09:21:48.600Z</time>
      </trkpt>
      <trkpt lat="43.39611" lon="6.68939">
        <ele>85</ele>
        <time>2015-04-29T09:23:09.993Z</time>
      </trkpt>
      <trkpt lat="43.39612" lon="6.68939">
        <ele>85</ele>
        <time>2015-04-29T09:24:29.395Z</time>
      </trkpt>
      <trkpt lat="43.3968" lon="6.68977">
        <ele>76</ele>
        <time>2015-04-29T09:24:53.062Z</time>
      </trkpt>
      <trkpt lat="43.39766" lon="6.69102">
        <ele>68</ele>
        <time>2015-04-29T09:25:27.394Z</time>
      </trkpt>
      <trkpt lat="43.39767" lon="6.69109">
        <ele>68</ele>
        <time>2015-04-29T09:25:28.452Z</time>
      </trkpt>
      <trkpt lat="43.39832" lon="6.69185">
        <ele>64</ele>
        <time>2015-04-29T09:26:05.391Z</time>
      </trkpt>
      <trkpt lat="43.39951" lon="6.69162">
        <ele>51</ele>
        <time>2015-04-29T09:27:08.932Z</time>
      </trkpt>
      <trkpt lat="43.40037" lon="6.69126">
        <ele>32</ele>
        <time>2015-04-29T09:27:39.816Z</time>
      </trkpt>
      <trkpt lat="43.40052" lon="6.69098">
        <ele>31</ele>
        <time>2015-04-29T09:28:11.781Z</time>
      </trkpt>
      <trkpt lat="43.40069" lon="6.69023">
        <ele>30</ele>
        <time>2015-04-29T09:28:42.881Z</time>
      </trkpt>
      <trkpt lat="43.4014" lon="6.69074">
        <ele>19</ele>
        <time>2015-04-29T09:29:14.782Z</time>
      </trkpt>
      <trkpt lat="43.40124" lon="6.69058">
        <ele>20</ele>
        <time>2015-04-29T09:29:44.769Z</time>
      </trkpt>
      <trkpt lat="43.40121" lon="6.69068">
        <ele>21</ele>
        <time>2015-04-29T09:29:48.468Z</time>
      </trkpt>
      <trkpt lat="43.40172" lon="6.6907">
        <ele>13</ele>
        <time>2015-04-29T09:30:31.036Z</time>
      </trkpt>
      <trkpt lat="43.40152" lon="6.69081">
        <ele>17</ele>
        <time>2015-04-29T09:31:02.696Z</time>
      </trkpt>
      <trkpt lat="43.40104" lon="6.69147">
        <ele>19</ele>
        <time>2015-04-29T09:31:32.789Z</time>
      </trkpt>
      <trkpt lat="43.40106" lon="6.6914">
        <ele>19</ele>
        <time>2015-04-29T09:31:47.536Z</time>
      </trkpt>
      <trkpt lat="43.40088" lon="6.69301">
        <ele>14</ele>
        <time>2015-04-29T09:32:18.523Z</time>
      </trkpt>
      <trkpt lat="43.40078" lon="6.69261">
        <ele>19</ele>
        <time>2015-04-29T09:32:48.509Z</time>
      </trkpt>
      <trkpt lat="43.40051" lon="6.69308">
        <ele>22</ele>
        <time>2015-04-29T09:33:18.518Z</time>
      </trkpt>
      <trkpt lat="43.40048" lon="6.69404">
        <ele>18</ele>
        <time>2015-04-29T09:33:48.459Z</time>
      </trkpt>
      <trkpt lat="43.39985" lon="6.69554">
        <ele>20</ele>
        <time>2015-04-29T09:34:39.514Z</time>
      </trkpt>
      <trkpt lat="43.39917" lon="6.6955">
        <ele>19</ele>
        <time>2015-04-29T09:35:10.397Z</time>
      </trkpt>
      <trkpt lat="43.39922" lon="6.69546">
        <ele>19</ele>
        <time>2015-04-29T09:35:48.454Z</time>
      </trkpt>
      <trkpt lat="43.39914" lon="6.69513">
        <ele>21</ele>
        <time>2015-04-29T09:36:19.397Z</time>
      </trkpt>
      <trkpt lat="43.39914" lon="6.69519">
        <ele>22</ele>
        <time>2015-04-29T09:36:21.473Z</time>
      </trkpt>
      <trkpt lat="43.3989" lon="6.69599">
        <ele>25</ele>
        <time>2015-04-29T09:36:48.489Z</time>
      </trkpt>
      <trkpt lat="43.39896" lon="6.6959">
        <ele>24</ele>
        <time>2015-04-29T09:37:48.526Z</time>
      </trkpt>
      <trkpt lat="43.399" lon="6.69561">
        <ele>23</ele>
        <time>2015-04-29T09:38:19.442Z</time>
      </trkpt>
      <trkpt lat="43.39898" lon="6.69561">
        <ele>23</ele>
        <time>2015-04-29T09:38:21.447Z</time>
      </trkpt>
      <trkpt lat="43.39878" lon="6.69552">
        <ele>25</ele>
        <time>2015-04-29T09:38:48.461Z</time>
      </trkpt>
      <trkpt lat="43.39873" lon="6.69554">
        <ele>25</ele>
        <time>2015-04-29T09:39:30.470Z</time>
      </trkpt>
      <trkpt lat="43.39856" lon="6.69566">
        <ele>27</ele>
        <time>2015-04-29T09:39:48.479Z</time>
      </trkpt>
      <trkpt lat="43.39844" lon="6.69574">
        <ele>28</ele>
        <time>2015-04-29T09:40:19.458Z</time>
      </trkpt>
      <trkpt lat="43.39828" lon="6.69588">
        <ele>33</ele>
        <time>2015-04-29T09:40:48.451Z</time>
      </trkpt>
      <trkpt lat="43.3982" lon="6.69595">
        <ele>36</ele>
        <time>2015-04-29T09:41:18.547Z</time>
      </trkpt>
      <trkpt lat="43.39812" lon="6.69602">
        <ele>38</ele>
        <time>2015-04-29T09:41:48.467Z</time>
      </trkpt>
      <trkpt lat="43.39793" lon="6.69614">
        <ele>40</ele>
        <time>2015-04-29T09:42:18.619Z</time>
      </trkpt>
      <trkpt lat="43.39778" lon="6.69622">
        <ele>42</ele>
        <time>2015-04-29T09:42:48.546Z</time>
      </trkpt>
      <trkpt lat="43.39759" lon="6.69643">
        <ele>44</ele>
        <time>2015-04-29T09:43:19.406Z</time>
      </trkpt>
      <trkpt lat="43.39742" lon="6.69657">
        <ele>52</ele>
        <time>2015-04-29T09:43:48.442Z</time>
      </trkpt>
      <trkpt lat="43.39693" lon="6.69676">
        <ele>54</ele>
        <time>2015-04-29T09:44:19.454Z</time>
      </trkpt>
      <trkpt lat="43.39686" lon="6.6967">
        <ele>56</ele>
        <time>2015-04-29T09:44:53.871Z</time>
      </trkpt>
      <trkpt lat="43.39663" lon="6.69682">
        <ele>62</ele>
        <time>2015-04-29T09:45:24.460Z</time>
      </trkpt>
      <trkpt lat="43.39673" lon="6.69682">
        <ele>57</ele>
        <time>2015-04-29T09:45:56.466Z</time>
      </trkpt>
      <trkpt lat="43.39675" lon="6.69688">
        <ele>55</ele>
        <time>2015-04-29T09:47:00.512Z</time>
      </trkpt>
      <trkpt lat="43.39646" lon="6.69719">
        <ele>58</ele>
        <time>2015-04-29T09:47:31.859Z</time>
      </trkpt>
      <trkpt lat="43.39624" lon="6.69806">
        <ele>49</ele>
        <time>2015-04-29T09:48:22.335Z</time>
      </trkpt>
      <trkpt lat="43.39624" lon="6.69806">
        <ele>49</ele>
        <time>2015-04-29T09:48:22.775Z</time>
      </trkpt>
      <trkpt lat="43.39569" lon="6.69804">
        <ele>54</ele>
        <time>2015-04-29T09:48:56.622Z</time>
      </trkpt>
      <trkpt lat="43.39523" lon="6.69765">
        <ele>58</ele>
        <time>2015-04-29T09:49:55.604Z</time>
      </trkpt>
      <trkpt lat="43.39468" lon="6.69799">
        <ele>60</ele>
        <time>2015-04-29T09:50:53.868Z</time>
      </trkpt>
      <trkpt lat="43.39409" lon="6.69807">
        <ele>66</ele>
        <time>2015-04-29T09:51:54.474Z</time>
      </trkpt>
      <trkpt lat="43.3936" lon="6.69808">
        <ele>69</ele>
        <time>2015-04-29T09:52:54.429Z</time>
      </trkpt>
      <trkpt lat="43.39321" lon="6.69754">
        <ele>76</ele>
        <time>2015-04-29T09:53:54.428Z</time>
      </trkpt>
      <trkpt lat="43.39319" lon="6.69777">
        <ele>79</ele>
        <time>2015-04-29T09:54:25.345Z</time>
      </trkpt>
      <trkpt lat="43.39305" lon="6.69778">
        <ele>81</ele>
        <time>2015-04-29T09:54:56.409Z</time>
      </trkpt>
      <trkpt lat="43.39287" lon="6.69806">
        <ele>84</ele>
        <time>2015-04-29T09:55:26.627Z</time>
      </trkpt>
      <trkpt lat="43.39277" lon="6.69812">
        <ele>85</ele>
        <time>2015-04-29T09:55:54.707Z</time>
      </trkpt>
      <trkpt lat="43.39255" lon="6.69806">
        <ele>87</ele>
        <time>2015-04-29T09:56:56.669Z</time>
      </trkpt>
      <trkpt lat="43.39224" lon="6.6984">
        <ele>99</ele>
        <time>2015-04-29T09:57:27.666Z</time>
      </trkpt>
      <trkpt lat="43.39203" lon="6.69873">
        <ele>101</ele>
        <time>2015-04-29T09:57:56.601Z</time>
      </trkpt>
      <trkpt lat="43.39212" lon="6.69873">
        <ele>100</ele>
        <time>2015-04-29T09:58:27.378Z</time>
      </trkpt>
      <trkpt lat="43.392" lon="6.69894">
        <ele>101</ele>
        <time>2015-04-29T09:58:48.379Z</time>
      </trkpt>
      <trkpt lat="43.39224" lon="6.69969">
        <ele>97</ele>
        <time>2015-04-29T09:59:18.448Z</time>
      </trkpt>
      <trkpt lat="43.39449" lon="6.70101">
        <ele>102</ele>
        <time>2015-04-29T10:00:46.406Z</time>
      </trkpt>
      <trkpt lat="43.39456" lon="6.70102">
        <ele>102</ele>
        <time>2015-04-29T10:00:48.424Z</time>
      </trkpt>
      <trkpt lat="43.39567" lon="6.70075">
        <ele>104</ele>
        <time>2015-04-29T10:01:19.355Z</time>
      </trkpt>
      <trkpt lat="43.39695" lon="6.70159">
        <ele>99</ele>
        <time>2015-04-29T10:01:48.377Z</time>
      </trkpt>
      <trkpt lat="43.39828" lon="6.70188">
        <ele>100</ele>
        <time>2015-04-29T10:02:18.358Z</time>
      </trkpt>
      <trkpt lat="43.39746" lon="6.70256">
        <ele>96</ele>
        <time>2015-04-29T10:02:48.365Z</time>
      </trkpt>
      <trkpt lat="43.39669" lon="6.70655">
        <ele>63</ele>
        <time>2015-04-29T10:04:48.504Z</time>
      </trkpt>
      <trkpt lat="43.39663" lon="6.7066">
        <ele>61</ele>
        <time>2015-04-29T10:04:56.350Z</time>
      </trkpt>
      <trkpt lat="43.39657" lon="6.70665">
        <ele>61</ele>
        <time>2015-04-29T10:05:47.356Z</time>
      </trkpt>
      <trkpt lat="43.39656" lon="6.70666">
        <ele>61</ele>
        <time>2015-04-29T10:05:48.506Z</time>
      </trkpt>
      <trkpt lat="43.39608" lon="6.70683">
        <ele>53</ele>
        <time>2015-04-29T10:06:19.442Z</time>
      </trkpt>
      <trkpt lat="43.39579" lon="6.70597">
        <ele>57</ele>
        <time>2015-04-29T10:06:48.362Z</time>
      </trkpt>
      <trkpt lat="43.39543" lon="6.70625">
        <ele>58</ele>
        <time>2015-04-29T10:07:18.365Z</time>
      </trkpt>
      <trkpt lat="43.39486" lon="6.70648">
        <ele>58</ele>
        <time>2015-04-29T10:08:17.312Z</time>
      </trkpt>
      <trkpt lat="43.39451" lon="6.70689">
        <ele>47</ele>
        <time>2015-04-29T10:08:47.504Z</time>
      </trkpt>
      <trkpt lat="43.39449" lon="6.70689">
        <ele>47</ele>
        <time>2015-04-29T10:08:48.428Z</time>
      </trkpt>
      <trkpt lat="43.3935" lon="6.70656">
        <ele>49</ele>
        <time>2015-04-29T10:09:18.413Z</time>
      </trkpt>
      <trkpt lat="43.39292" lon="6.70657">
        <ele>46</ele>
        <time>2015-04-29T10:09:48.372Z</time>
      </trkpt>
      <trkpt lat="43.39288" lon="6.70659">
        <ele>46</ele>
        <time>2015-04-29T10:10:22.474Z</time>
      </trkpt>
      <trkpt lat="43.39259" lon="6.70655">
        <ele>45</ele>
        <time>2015-04-29T10:10:55.071Z</time>
      </trkpt>
      <trkpt lat="43.39257" lon="6.70676">
        <ele>45</ele>
        <time>2015-04-29T10:11:28.392Z</time>
      </trkpt>
      <trkpt lat="43.39258" lon="6.70679">
        <ele>45</ele>
        <time>2015-04-29T10:11:29.351Z</time>
      </trkpt>
      <trkpt lat="43.39265" lon="6.70697">
        <ele>46</ele>
        <time>2015-04-29T10:11:48.322Z</time>
      </trkpt>
      <trkpt lat="43.39287" lon="6.7072">
        <ele>46</ele>
        <time>2015-04-29T10:12:18.427Z</time>
      </trkpt>
      <trkpt lat="43.39286" lon="6.70745">
        <ele>47</ele>
        <time>2015-04-29T10:12:48.318Z</time>
      </trkpt>
      <trkpt lat="43.3929" lon="6.70759">
        <ele>51</ele>
        <time>2015-04-29T10:13:38.328Z</time>
      </trkpt>
      <trkpt lat="43.3929" lon="6.70759">
        <ele>51</ele>
        <time>2015-04-29T10:13:48.384Z</time>
      </trkpt>
      <trkpt lat="43.393" lon="6.70805">
        <ele>54</ele>
        <time>2015-04-29T10:14:19.326Z</time>
      </trkpt>
      <trkpt lat="43.39229" lon="6.70759">
        <ele>58</ele>
        <time>2015-04-29T10:14:48.360Z</time>
      </trkpt>
      <trkpt lat="43.39136" lon="6.70821">
        <ele>68</ele>
        <time>2015-04-29T10:15:19.342Z</time>
      </trkpt>
      <trkpt lat="43.39054" lon="6.70823">
        <ele>74</ele>
        <time>2015-04-29T10:15:48.320Z</time>
      </trkpt>
      <trkpt lat="43.39016" lon="6.7089">
        <ele>77</ele>
        <time>2015-04-29T10:16:18.369Z</time>
      </trkpt>
      <trkpt lat="43.38969" lon="6.7087">
        <ele>80</ele>
        <time>2015-04-29T10:16:48.378Z</time>
      </trkpt>
      <trkpt lat="43.38968" lon="6.70884">
        <ele>80</ele>
        <time>2015-04-29T10:17:19.328Z</time>
      </trkpt>
      <trkpt lat="43.38965" lon="6.70975">
        <ele>73</ele>
        <time>2015-04-29T10:17:48.437Z</time>
      </trkpt>
      <trkpt lat="43.38944" lon="6.7108">
        <ele>64</ele>
        <time>2015-04-29T10:18:19.306Z</time>
      </trkpt>
      <trkpt lat="43.38885" lon="6.71157">
        <ele>62</ele>
        <time>2015-04-29T10:18:48.307Z</time>
      </trkpt>
      <trkpt lat="43.3882" lon="6.71291">
        <ele>63</ele>
        <time>2015-04-29T10:19:19.303Z</time>
      </trkpt>
      <trkpt lat="43.38749" lon="6.71363">
        <ele>60</ele>
        <time>2015-04-29T10:19:48.304Z</time>
      </trkpt>
      <trkpt lat="43.38735" lon="6.71429">
        <ele>54</ele>
        <time>2015-04-29T10:20:18.353Z</time>
      </trkpt>
      <trkpt lat="43.38719" lon="6.71498">
        <ele>49</ele>
        <time>2015-04-29T10:20:48.319Z</time>
      </trkpt>
      <trkpt lat="43.38612" lon="6.71793">
        <ele>34</ele>
        <time>2015-04-29T10:21:19.323Z</time>
      </trkpt>
      <trkpt lat="43.38462" lon="6.71699">
        <ele>36</ele>
        <time>2015-04-29T10:21:48.398Z</time>
      </trkpt>
      <trkpt lat="43.38341" lon="6.71842">
        <ele>29</ele>
        <time>2015-04-29T10:22:19.336Z</time>
      </trkpt>
      <trkpt lat="43.38193" lon="6.71881">
        <ele>22</ele>
        <time>2015-04-29T10:22:48.318Z</time>
      </trkpt>
      <trkpt lat="43.38049" lon="6.72085">
        <ele>12</ele>
        <time>2015-04-29T10:23:18.303Z</time>
      </trkpt>
      <trkpt lat="43.37906" lon="6.72035">
        <ele>10</ele>
        <time>2015-04-29T10:23:48.303Z</time>
      </trkpt>
      <trkpt lat="43.37787" lon="6.71922">
        <ele>14</ele>
        <time>2015-04-29T10:24:19.304Z</time>
      </trkpt>
      <trkpt lat="43.37703" lon="6.71904">
        <ele>16</ele>
        <time>2015-04-29T10:24:48.437Z</time>
      </trkpt>
      <trkpt lat="43.37685" lon="6.71954">
        <ele>14</ele>
        <time>2015-04-29T10:25:18.302Z</time>
      </trkpt>
      <trkpt lat="43.37685" lon="6.71954">
        <ele>14</ele>
        <time>2015-04-29T10:25:55.520Z</time>
      </trkpt>
      <trkpt lat="43.37706" lon="6.71907">
        <ele>16</ele>
        <time>2015-04-29T15:25:54.151Z</time>
      </trkpt>
      <trkpt lat="43.3772" lon="6.7189">
        <ele>17</ele>
        <time>2015-04-29T15:26:11.168Z</time>
      </trkpt>
      <trkpt lat="43.37614" lon="6.71772">
        <ele>17</ele>
        <time>2015-04-29T15:26:41.219Z</time>
      </trkpt>
      <trkpt lat="43.37471" lon="6.71652">
        <ele>26</ele>
        <time>2015-04-29T15:27:11.196Z</time>
      </trkpt>
      <trkpt lat="43.37389" lon="6.71465">
        <ele>27</ele>
        <time>2015-04-29T15:27:41.183Z</time>
      </trkpt>
      <trkpt lat="43.37306" lon="6.7123">
        <ele>20</ele>
        <time>2015-04-29T15:28:11.181Z</time>
      </trkpt>
      <trkpt lat="43.37136" lon="6.71261">
        <ele>17</ele>
        <time>2015-04-29T15:28:41.201Z</time>
      </trkpt>
      <trkpt lat="43.37009" lon="6.71339">
        <ele>13</ele>
        <time>2015-04-29T15:29:11.266Z</time>
      </trkpt>
      <trkpt lat="43.36858" lon="6.71338">
        <ele>13</ele>
        <time>2015-04-29T15:29:42.172Z</time>
      </trkpt>
      <trkpt lat="43.3672" lon="6.71197">
        <ele>6</ele>
        <time>2015-04-29T15:30:11.185Z</time>
      </trkpt>
      <trkpt lat="43.36551" lon="6.71267">
        <ele>12</ele>
        <time>2015-04-29T15:30:41.194Z</time>
      </trkpt>
      <trkpt lat="43.36513" lon="6.71294">
        <ele>13</ele>
        <time>2015-04-29T15:31:11.231Z</time>
      </trkpt>
      <trkpt lat="43.3635" lon="6.71369">
        <ele>13</ele>
        <time>2015-04-29T15:31:41.216Z</time>
      </trkpt>
      <trkpt lat="43.36211" lon="6.71458">
        <ele>19</ele>
        <time>2015-04-29T15:32:11.196Z</time>
      </trkpt>
      <trkpt lat="43.36074" lon="6.7152">
        <ele>23</ele>
        <time>2015-04-29T15:32:41.175Z</time>
      </trkpt>
      <trkpt lat="43.35927" lon="6.71463">
        <ele>28</ele>
        <time>2015-04-29T15:33:11.189Z</time>
      </trkpt>
      <trkpt lat="43.35781" lon="6.71483">
        <ele>30</ele>
        <time>2015-04-29T15:33:42.188Z</time>
      </trkpt>
      <trkpt lat="43.3566" lon="6.71373">
        <ele>28</ele>
        <time>2015-04-29T15:34:12.218Z</time>
      </trkpt>
      <trkpt lat="43.3552" lon="6.71244">
        <ele>39</ele>
        <time>2015-04-29T15:34:43.187Z</time>
      </trkpt>
      <trkpt lat="43.35366" lon="6.71161">
        <ele>38</ele>
        <time>2015-04-29T15:35:11.228Z</time>
      </trkpt>
      <trkpt lat="43.35179" lon="6.71066">
        <ele>36</ele>
        <time>2015-04-29T15:35:42.290Z</time>
      </trkpt>
      <trkpt lat="43.35007" lon="6.71124">
        <ele>34</ele>
        <time>2015-04-29T15:36:12.187Z</time>
      </trkpt>
      <trkpt lat="43.34337" lon="6.69698">
        <ele>26</ele>
        <time>2015-04-29T15:39:43.192Z</time>
      </trkpt>
      <trkpt lat="43.34224" lon="6.69524">
        <ele>17</ele>
        <time>2015-04-29T15:40:12.205Z</time>
      </trkpt>
      <trkpt lat="43.34256" lon="6.69294">
        <ele>16</ele>
        <time>2015-04-29T15:40:42.187Z</time>
      </trkpt>
      <trkpt lat="43.34253" lon="6.69203">
        <ele>14</ele>
        <time>2015-04-29T15:41:12.185Z</time>
      </trkpt>
      <trkpt lat="43.3426" lon="6.68942">
        <ele>9</ele>
        <time>2015-04-29T15:41:43.317Z</time>
      </trkpt>
      <trkpt lat="43.34204" lon="6.68722">
        <ele>8</ele>
        <time>2015-04-29T15:42:12.183Z</time>
      </trkpt>
      <trkpt lat="43.34039" lon="6.67957">
        <ele>7</ele>
        <time>2015-04-29T15:43:43.200Z</time>
      </trkpt>
      <trkpt lat="43.33918" lon="6.67806">
        <ele>7</ele>
        <time>2015-04-29T15:44:12.231Z</time>
      </trkpt>
      <trkpt lat="43.33818" lon="6.67585">
        <ele>9</ele>
        <time>2015-04-29T15:44:43.186Z</time>
      </trkpt>
      <trkpt lat="43.33805" lon="6.67529">
        <ele>10</ele>
        <time>2015-04-29T15:45:12.182Z</time>
      </trkpt>
      <trkpt lat="43.33708" lon="6.67322">
        <ele>10</ele>
        <time>2015-04-29T15:45:42.171Z</time>
      </trkpt>
      <trkpt lat="43.3206" lon="6.66141">
        <ele>10</ele>
        <time>2015-04-29T15:50:12.191Z</time>
      </trkpt>
      <trkpt lat="43.31941" lon="6.65966">
        <ele>18</ele>
        <time>2015-04-29T15:50:43.179Z</time>
      </trkpt>
      <trkpt lat="43.31876" lon="6.65833">
        <ele>31</ele>
        <time>2015-04-29T15:51:12.178Z</time>
      </trkpt>
      <trkpt lat="43.31797" lon="6.65732">
        <ele>39</ele>
        <time>2015-04-29T15:51:42.171Z</time>
      </trkpt>
      <trkpt lat="43.317" lon="6.65722">
        <ele>49</ele>
        <time>2015-04-29T15:52:12.186Z</time>
      </trkpt>
      <trkpt lat="43.31615" lon="6.65741">
        <ele>52</ele>
        <time>2015-04-29T15:52:42.188Z</time>
      </trkpt>
      <trkpt lat="43.31476" lon="6.65663">
        <ele>40</ele>
        <time>2015-04-29T15:53:12.177Z</time>
      </trkpt>
      <trkpt lat="43.30753" lon="6.64499">
        <ele>15</ele>
        <time>2015-04-29T15:55:42.174Z</time>
      </trkpt>
      <trkpt lat="43.30738" lon="6.64255">
        <ele>15</ele>
        <time>2015-04-29T15:56:12.171Z</time>
      </trkpt>
      <trkpt lat="43.30778" lon="6.64157">
        <ele>12</ele>
        <time>2015-04-29T15:56:42.171Z</time>
      </trkpt>
      <trkpt lat="43.30825" lon="6.64102">
        <ele>10</ele>
        <time>2015-04-29T15:57:12.207Z</time>
      </trkpt>
      <trkpt lat="43.30867" lon="6.64028">
        <ele>10</ele>
        <time>2015-04-29T15:57:43.435Z</time>
      </trkpt>
      <trkpt lat="43.30886" lon="6.63905">
        <ele>7</ele>
        <time>2015-04-29T15:58:12.199Z</time>
      </trkpt>
      <trkpt lat="43.30918" lon="6.63775">
        <ele>9</ele>
        <time>2015-04-29T15:58:42.215Z</time>
      </trkpt>
      <trkpt lat="43.30849" lon="6.63715">
        <ele>7</ele>
        <time>2015-04-29T15:59:12.170Z</time>
      </trkpt>
      <trkpt lat="43.30766" lon="6.63463">
        <ele>7</ele>
        <time>2015-04-29T15:59:42.170Z</time>
      </trkpt>
      <trkpt lat="43.30727" lon="6.63278">
        <ele>6</ele>
        <time>2015-04-29T16:00:12.244Z</time>
      </trkpt>
      <trkpt lat="43.30742" lon="6.63176">
        <ele>12</ele>
        <time>2015-04-29T16:00:42.255Z</time>
      </trkpt>
      <trkpt lat="43.3073" lon="6.63181">
        <ele>12</ele>
        <time>2015-04-29T16:01:12.191Z</time>
      </trkpt>
      <trkpt lat="43.30736" lon="6.6318">
        <ele>12</ele>
        <time>2015-04-29T16:02:49.347Z</time>
      </trkpt>
      <trkpt lat="43.30722" lon="6.63204">
        <ele>11</ele>
        <time>2015-04-29T16:03:12.331Z</time>
      </trkpt>
      <trkpt lat="43.30723" lon="6.63204">
        <ele>11</ele>
        <time>2015-04-29T16:03:14.205Z</time>
      </trkpt>
      <trkpt lat="43.3064" lon="6.63222">
        <ele>10</ele>
        <time>2015-04-29T16:03:45.182Z</time>
      </trkpt>
      <trkpt lat="43.30533" lon="6.63112">
        <ele>8</ele>
        <time>2015-04-29T16:04:12.213Z</time>
      </trkpt>
      <trkpt lat="43.30476" lon="6.62861">
        <ele>4</ele>
        <time>2015-04-29T16:04:42.260Z</time>
      </trkpt>
      <trkpt lat="43.30356" lon="6.62712">
        <ele>7</ele>
        <time>2015-04-29T16:05:12.219Z</time>
      </trkpt>
      <trkpt lat="43.29673" lon="6.62254">
        <ele>10</ele>
        <time>2015-04-29T16:07:12.193Z</time>
      </trkpt>
      <trkpt lat="43.29651" lon="6.62056">
        <ele>8</ele>
        <time>2015-04-29T16:07:42.204Z</time>
      </trkpt>
      <trkpt lat="43.28964" lon="6.60568">
        <ele>10</ele>
        <time>2015-04-29T16:10:42.263Z</time>
      </trkpt>
      <trkpt lat="43.28938" lon="6.60496">
        <ele>12</ele>
        <time>2015-04-29T16:11:12.189Z</time>
      </trkpt>
      <trkpt lat="43.29063" lon="6.60348">
        <ele>23</ele>
        <time>2015-04-29T16:11:52.653Z</time>
      </trkpt>
      <trkpt lat="43.29135" lon="6.60281">
        <ele>25</ele>
        <time>2015-04-29T16:12:12.332Z</time>
      </trkpt>
      <trkpt lat="43.29135" lon="6.60281">
        <ele>25</ele>
        <time>2015-04-29T16:12:28.054Z</time>
      </trkpt>
    </trkseg>
  </trk>
</gpx>